<?xml version="1.0" encoding="UTF-8" standalone="no" ?>
<gpx xmlns="http://www.topografix.com/GPX/1/1" xmlns:xsi="http://www.w3.org/2001/XMLSchema-instance" xsi:schemaLocation="http://www.topografix.com/GPX/1/1 http://www.topografix.com/GPX/1/1/gpx.xsd" version="1.1" creator="VisuGPX - https://www.visugpx.com">
  <metadata>
    <name>Saint-Cyr-sous-Dourdan</name>
    <desc><![CDATA[Saint-Cyr-sous-Dourdan 12,25km-100m]]></desc>
  </metadata>
  <trk>
    <name><![CDATA[2016-02-07 12:22:47]]></name>
    <trkseg>
      <trkpt lat="48.56957" lon="2.03422">
        <ele>87.85</ele>
        <time>2016-02-07T08:12:30Z</time>
      </trkpt>
      <trkpt lat="48.56949" lon="2.03426">
        <ele>87.63</ele>
        <time>2016-02-07T08:12:43Z</time>
      </trkpt>
      <trkpt lat="48.56945" lon="2.03427">
        <ele>87.28</ele>
        <time>2016-02-07T08:12:47Z</time>
      </trkpt>
      <trkpt lat="48.56919" lon="2.03439">
        <ele>85.48</ele>
        <time>2016-02-07T08:13:11Z</time>
      </trkpt>
      <trkpt lat="48.56909" lon="2.03444">
        <ele>85.13</ele>
        <time>2016-02-07T08:13:19Z</time>
      </trkpt>
      <trkpt lat="48.56905" lon="2.03454">
        <ele>84.88</ele>
        <time>2016-02-07T08:13:26Z</time>
      </trkpt>
      <trkpt lat="48.56894" lon="2.03483">
        <ele>85.44</ele>
        <time>2016-02-07T08:13:47Z</time>
      </trkpt>
      <trkpt lat="48.56884" lon="2.03508">
        <ele>85.92</ele>
        <time>2016-02-07T08:14:03Z</time>
      </trkpt>
      <trkpt lat="48.56863" lon="2.03543">
        <ele>85.56</ele>
        <time>2016-02-07T08:14:29Z</time>
      </trkpt>
      <trkpt lat="48.56848" lon="2.03564">
        <ele>84.77</ele>
        <time>2016-02-07T08:14:45Z</time>
      </trkpt>
      <trkpt lat="48.56835" lon="2.03576">
        <ele>83.98</ele>
        <time>2016-02-07T08:14:59Z</time>
      </trkpt>
      <trkpt lat="48.56829" lon="2.03582">
        <ele>83.76</ele>
        <time>2016-02-07T08:15:05Z</time>
      </trkpt>
      <trkpt lat="48.56823" lon="2.03589">
        <ele>83.5</ele>
        <time>2016-02-07T08:15:11Z</time>
      </trkpt>
      <trkpt lat="48.56812" lon="2.036">
        <ele>83.03</ele>
        <time>2016-02-07T08:15:21Z</time>
      </trkpt>
      <trkpt lat="48.5681" lon="2.03604">
        <ele>83.04</ele>
        <time>2016-02-07T08:15:24Z</time>
      </trkpt>
      <trkpt lat="48.56807" lon="2.03607">
        <ele>82.98</ele>
        <time>2016-02-07T08:15:27Z</time>
      </trkpt>
      <trkpt lat="48.56799" lon="2.03619">
        <ele>82.81</ele>
        <time>2016-02-07T08:15:38Z</time>
      </trkpt>
      <trkpt lat="48.56791" lon="2.03632">
        <ele>82.8</ele>
        <time>2016-02-07T08:15:49Z</time>
      </trkpt>
      <trkpt lat="48.56783" lon="2.0365">
        <ele>82.8</ele>
        <time>2016-02-07T08:16:02Z</time>
      </trkpt>
      <trkpt lat="48.56777" lon="2.03662">
        <ele>82.71</ele>
        <time>2016-02-07T08:16:12Z</time>
      </trkpt>
      <trkpt lat="48.56764" lon="2.03702">
        <ele>82.75</ele>
        <time>2016-02-07T08:16:33Z</time>
      </trkpt>
      <trkpt lat="48.5676" lon="2.03712">
        <ele>82.35</ele>
        <time>2016-02-07T08:16:40Z</time>
      </trkpt>
      <trkpt lat="48.5676" lon="2.03718">
        <ele>82.23</ele>
        <time>2016-02-07T08:16:45Z</time>
      </trkpt>
      <trkpt lat="48.56759" lon="2.03744">
        <ele>82.24</ele>
        <time>2016-02-07T08:17:01Z</time>
      </trkpt>
      <trkpt lat="48.56757" lon="2.03771">
        <ele>82.04</ele>
        <time>2016-02-07T08:17:10Z</time>
      </trkpt>
      <trkpt lat="48.56757" lon="2.03778">
        <ele>82.02</ele>
        <time>2016-02-07T08:17:12Z</time>
      </trkpt>
      <trkpt lat="48.56766" lon="2.03812">
        <ele>81.82</ele>
        <time>2016-02-07T08:17:29Z</time>
      </trkpt>
      <trkpt lat="48.56766" lon="2.03817">
        <ele>81.72</ele>
        <time>2016-02-07T08:17:31Z</time>
      </trkpt>
      <trkpt lat="48.56766" lon="2.03825">
        <ele>81.66</ele>
        <time>2016-02-07T08:17:35Z</time>
      </trkpt>
      <trkpt lat="48.56778" lon="2.03861">
        <ele>81</ele>
        <time>2016-02-07T08:17:54Z</time>
      </trkpt>
      <trkpt lat="48.5678" lon="2.0388">
        <ele>80.82</ele>
        <time>2016-02-07T08:18:06Z</time>
      </trkpt>
      <trkpt lat="48.56783" lon="2.03884">
        <ele>80.78</ele>
        <time>2016-02-07T08:18:09Z</time>
      </trkpt>
      <trkpt lat="48.56784" lon="2.03887">
        <ele>80.79</ele>
        <time>2016-02-07T08:18:11Z</time>
      </trkpt>
      <trkpt lat="48.56803" lon="2.03911">
        <ele>80.08</ele>
        <time>2016-02-07T08:18:44Z</time>
      </trkpt>
      <trkpt lat="48.56802" lon="2.03939">
        <ele>79.77</ele>
        <time>2016-02-07T08:18:59Z</time>
      </trkpt>
      <trkpt lat="48.56795" lon="2.03958">
        <ele>80.13</ele>
        <time>2016-02-07T08:19:13Z</time>
      </trkpt>
      <trkpt lat="48.56776" lon="2.03963">
        <ele>79.6</ele>
        <time>2016-02-07T08:19:32Z</time>
      </trkpt>
      <trkpt lat="48.56747" lon="2.03964">
        <ele>79.5</ele>
        <time>2016-02-07T08:19:57Z</time>
      </trkpt>
      <trkpt lat="48.56716" lon="2.03956">
        <ele>79.32</ele>
        <time>2016-02-07T08:20:26Z</time>
      </trkpt>
      <trkpt lat="48.56697" lon="2.03952">
        <ele>79.27</ele>
        <time>2016-02-07T08:20:42Z</time>
      </trkpt>
      <trkpt lat="48.56676" lon="2.03941">
        <ele>79.01</ele>
        <time>2016-02-07T08:21:04Z</time>
      </trkpt>
      <trkpt lat="48.56665" lon="2.03938">
        <ele>78.8</ele>
        <time>2016-02-07T08:21:14Z</time>
      </trkpt>
      <trkpt lat="48.56628" lon="2.03923">
        <ele>79</ele>
        <time>2016-02-07T08:21:41Z</time>
      </trkpt>
      <trkpt lat="48.56604" lon="2.03915">
        <ele>79.38</ele>
        <time>2016-02-07T08:21:57Z</time>
      </trkpt>
      <trkpt lat="48.56583" lon="2.0391">
        <ele>79.42</ele>
        <time>2016-02-07T08:22:12Z</time>
      </trkpt>
      <trkpt lat="48.56565" lon="2.03906">
        <ele>79.32</ele>
        <time>2016-02-07T08:22:28Z</time>
      </trkpt>
      <trkpt lat="48.56561" lon="2.03906">
        <ele>79.32</ele>
        <time>2016-02-07T08:22:31Z</time>
      </trkpt>
      <trkpt lat="48.56552" lon="2.03908">
        <ele>79.48</ele>
        <time>2016-02-07T08:22:38Z</time>
      </trkpt>
      <trkpt lat="48.56533" lon="2.03895">
        <ele>79.65</ele>
        <time>2016-02-07T08:22:54Z</time>
      </trkpt>
      <trkpt lat="48.56526" lon="2.03903">
        <ele>79.98</ele>
        <time>2016-02-07T08:23:04Z</time>
      </trkpt>
      <trkpt lat="48.56513" lon="2.03924">
        <ele>79.97</ele>
        <time>2016-02-07T08:23:20Z</time>
      </trkpt>
      <trkpt lat="48.56504" lon="2.03947">
        <ele>80.34</ele>
        <time>2016-02-07T08:23:37Z</time>
      </trkpt>
      <trkpt lat="48.56503" lon="2.0395">
        <ele>80.34</ele>
        <time>2016-02-07T08:23:39Z</time>
      </trkpt>
      <trkpt lat="48.56494" lon="2.03969">
        <ele>80.41</ele>
        <time>2016-02-07T08:23:54Z</time>
      </trkpt>
      <trkpt lat="48.56487" lon="2.03993">
        <ele>80.65</ele>
        <time>2016-02-07T08:24:08Z</time>
      </trkpt>
      <trkpt lat="48.5648" lon="2.04018">
        <ele>81.18</ele>
        <time>2016-02-07T08:24:24Z</time>
      </trkpt>
      <trkpt lat="48.56472" lon="2.04029">
        <ele>81.55</ele>
        <time>2016-02-07T08:24:39Z</time>
      </trkpt>
      <trkpt lat="48.56469" lon="2.04029">
        <ele>81.68</ele>
        <time>2016-02-07T08:24:42Z</time>
      </trkpt>
      <trkpt lat="48.56452" lon="2.04011">
        <ele>82.37</ele>
        <time>2016-02-07T08:25:00Z</time>
      </trkpt>
      <trkpt lat="48.5644" lon="2.03985">
        <ele>82.69</ele>
        <time>2016-02-07T08:25:19Z</time>
      </trkpt>
      <trkpt lat="48.56429" lon="2.03961">
        <ele>82.97</ele>
        <time>2016-02-07T08:25:35Z</time>
      </trkpt>
      <trkpt lat="48.5642" lon="2.0394">
        <ele>83.26</ele>
        <time>2016-02-07T08:25:51Z</time>
      </trkpt>
      <trkpt lat="48.56411" lon="2.03921">
        <ele>83.5</ele>
        <time>2016-02-07T08:26:08Z</time>
      </trkpt>
      <trkpt lat="48.56403" lon="2.03907">
        <ele>83.9</ele>
        <time>2016-02-07T08:26:19Z</time>
      </trkpt>
      <trkpt lat="48.56391" lon="2.03888">
        <ele>84.69</ele>
        <time>2016-02-07T08:26:35Z</time>
      </trkpt>
      <trkpt lat="48.56372" lon="2.0385">
        <ele>85.19</ele>
        <time>2016-02-07T08:27:01Z</time>
      </trkpt>
      <trkpt lat="48.5635" lon="2.03807">
        <ele>86.19</ele>
        <time>2016-02-07T08:27:28Z</time>
      </trkpt>
      <trkpt lat="48.56337" lon="2.03789">
        <ele>85.51</ele>
        <time>2016-02-07T08:27:45Z</time>
      </trkpt>
      <trkpt lat="48.56327" lon="2.03771">
        <ele>85.37</ele>
        <time>2016-02-07T08:27:59Z</time>
      </trkpt>
      <trkpt lat="48.56322" lon="2.03754">
        <ele>85.69</ele>
        <time>2016-02-07T08:28:10Z</time>
      </trkpt>
      <trkpt lat="48.56312" lon="2.03737">
        <ele>86.19</ele>
        <time>2016-02-07T08:28:21Z</time>
      </trkpt>
      <trkpt lat="48.56302" lon="2.0372">
        <ele>86.07</ele>
        <time>2016-02-07T08:28:33Z</time>
      </trkpt>
      <trkpt lat="48.56293" lon="2.03693">
        <ele>86.74</ele>
        <time>2016-02-07T08:28:49Z</time>
      </trkpt>
      <trkpt lat="48.56288" lon="2.03679">
        <ele>87.04</ele>
        <time>2016-02-07T08:28:58Z</time>
      </trkpt>
      <trkpt lat="48.56282" lon="2.03666">
        <ele>87.09</ele>
        <time>2016-02-07T08:29:09Z</time>
      </trkpt>
      <trkpt lat="48.5628" lon="2.03663">
        <ele>87.13</ele>
        <time>2016-02-07T08:29:12Z</time>
      </trkpt>
      <trkpt lat="48.56275" lon="2.03655">
        <ele>87.26</ele>
        <time>2016-02-07T08:29:19Z</time>
      </trkpt>
      <trkpt lat="48.56274" lon="2.03642">
        <ele>87.37</ele>
        <time>2016-02-07T08:29:25Z</time>
      </trkpt>
      <trkpt lat="48.56269" lon="2.0362">
        <ele>87.73</ele>
        <time>2016-02-07T08:29:37Z</time>
      </trkpt>
      <trkpt lat="48.56267" lon="2.03614">
        <ele>87.68</ele>
        <time>2016-02-07T08:29:40Z</time>
      </trkpt>
      <trkpt lat="48.56259" lon="2.03587">
        <ele>87.76</ele>
        <time>2016-02-07T08:29:59Z</time>
      </trkpt>
      <trkpt lat="48.56252" lon="2.03572">
        <ele>88.06</ele>
        <time>2016-02-07T08:30:10Z</time>
      </trkpt>
      <trkpt lat="48.56241" lon="2.03561">
        <ele>87.96</ele>
        <time>2016-02-07T08:30:22Z</time>
      </trkpt>
      <trkpt lat="48.56233" lon="2.03538">
        <ele>87.85</ele>
        <time>2016-02-07T08:30:35Z</time>
      </trkpt>
      <trkpt lat="48.56213" lon="2.03482">
        <ele>88.53</ele>
        <time>2016-02-07T08:31:01Z</time>
      </trkpt>
      <trkpt lat="48.562" lon="2.03451">
        <ele>88.3</ele>
        <time>2016-02-07T08:31:23Z</time>
      </trkpt>
      <trkpt lat="48.5618" lon="2.03433">
        <ele>89.05</ele>
        <time>2016-02-07T08:31:41Z</time>
      </trkpt>
      <trkpt lat="48.56178" lon="2.03432">
        <ele>89.15</ele>
        <time>2016-02-07T08:31:43Z</time>
      </trkpt>
      <trkpt lat="48.56168" lon="2.03414">
        <ele>89.16</ele>
        <time>2016-02-07T08:31:58Z</time>
      </trkpt>
      <trkpt lat="48.56155" lon="2.03395">
        <ele>88.71</ele>
        <time>2016-02-07T08:32:15Z</time>
      </trkpt>
      <trkpt lat="48.5615" lon="2.03388">
        <ele>88.64</ele>
        <time>2016-02-07T08:32:20Z</time>
      </trkpt>
      <trkpt lat="48.56131" lon="2.03355">
        <ele>88.38</ele>
        <time>2016-02-07T08:32:45Z</time>
      </trkpt>
      <trkpt lat="48.56121" lon="2.03332">
        <ele>88.49</ele>
        <time>2016-02-07T08:33:02Z</time>
      </trkpt>
      <trkpt lat="48.56099" lon="2.03303">
        <ele>88.84</ele>
        <time>2016-02-07T08:33:24Z</time>
      </trkpt>
      <trkpt lat="48.56097" lon="2.03301">
        <ele>88.84</ele>
        <time>2016-02-07T08:33:25Z</time>
      </trkpt>
      <trkpt lat="48.56096" lon="2.03299">
        <ele>88.88</ele>
        <time>2016-02-07T08:33:27Z</time>
      </trkpt>
      <trkpt lat="48.56088" lon="2.03289">
        <ele>89.56</ele>
        <time>2016-02-07T08:33:42Z</time>
      </trkpt>
      <trkpt lat="48.5608" lon="2.03286">
        <ele>89.5</ele>
        <time>2016-02-07T08:34:04Z</time>
      </trkpt>
      <trkpt lat="48.56078" lon="2.03286">
        <ele>89.99</ele>
        <time>2016-02-07T08:34:20Z</time>
      </trkpt>
      <trkpt lat="48.56077" lon="2.03286">
        <ele>89.59</ele>
        <time>2016-02-07T08:34:41Z</time>
      </trkpt>
      <trkpt lat="48.56055" lon="2.03245">
        <ele>90.07</ele>
        <time>2016-02-07T08:35:30Z</time>
      </trkpt>
      <trkpt lat="48.56043" lon="2.03223">
        <ele>91.21</ele>
        <time>2016-02-07T08:35:53Z</time>
      </trkpt>
      <trkpt lat="48.56028" lon="2.03199">
        <ele>91.97</ele>
        <time>2016-02-07T08:36:13Z</time>
      </trkpt>
      <trkpt lat="48.56017" lon="2.03183">
        <ele>92.17</ele>
        <time>2016-02-07T08:36:28Z</time>
      </trkpt>
      <trkpt lat="48.56005" lon="2.03181">
        <ele>92.44</ele>
        <time>2016-02-07T08:36:45Z</time>
      </trkpt>
      <trkpt lat="48.55993" lon="2.03185">
        <ele>93.81</ele>
        <time>2016-02-07T08:36:58Z</time>
      </trkpt>
      <trkpt lat="48.55974" lon="2.03192">
        <ele>95.29</ele>
        <time>2016-02-07T08:37:16Z</time>
      </trkpt>
      <trkpt lat="48.55959" lon="2.03196">
        <ele>96.53</ele>
        <time>2016-02-07T08:37:31Z</time>
      </trkpt>
      <trkpt lat="48.55945" lon="2.03201">
        <ele>97.69</ele>
        <time>2016-02-07T08:37:44Z</time>
      </trkpt>
      <trkpt lat="48.5593" lon="2.03202">
        <ele>98.83</ele>
        <time>2016-02-07T08:38:00Z</time>
      </trkpt>
      <trkpt lat="48.55907" lon="2.03208">
        <ele>100.6</ele>
        <time>2016-02-07T08:38:22Z</time>
      </trkpt>
      <trkpt lat="48.55886" lon="2.03207">
        <ele>103.07</ele>
        <time>2016-02-07T08:38:44Z</time>
      </trkpt>
      <trkpt lat="48.55867" lon="2.03206">
        <ele>104.42</ele>
        <time>2016-02-07T08:39:10Z</time>
      </trkpt>
      <trkpt lat="48.55862" lon="2.03205">
        <ele>105.16</ele>
        <time>2016-02-07T08:39:21Z</time>
      </trkpt>
      <trkpt lat="48.55756" lon="2.03286">
        <ele>113.01</ele>
        <time>2016-02-07T08:41:12Z</time>
      </trkpt>
      <trkpt lat="48.55739" lon="2.033">
        <ele>114.7</ele>
        <time>2016-02-07T08:41:28Z</time>
      </trkpt>
      <trkpt lat="48.55724" lon="2.03314">
        <ele>115.71</ele>
        <time>2016-02-07T08:41:42Z</time>
      </trkpt>
      <trkpt lat="48.55709" lon="2.03326">
        <ele>116.53</ele>
        <time>2016-02-07T08:41:56Z</time>
      </trkpt>
      <trkpt lat="48.55699" lon="2.03331">
        <ele>117.44</ele>
        <time>2016-02-07T08:42:04Z</time>
      </trkpt>
      <trkpt lat="48.55678" lon="2.03344">
        <ele>118.75</ele>
        <time>2016-02-07T08:42:21Z</time>
      </trkpt>
      <trkpt lat="48.55664" lon="2.03354">
        <ele>119.73</ele>
        <time>2016-02-07T08:42:35Z</time>
      </trkpt>
      <trkpt lat="48.55648" lon="2.03368">
        <ele>120.58</ele>
        <time>2016-02-07T08:42:52Z</time>
      </trkpt>
      <trkpt lat="48.5563" lon="2.03389">
        <ele>122.05</ele>
        <time>2016-02-07T08:43:14Z</time>
      </trkpt>
      <trkpt lat="48.55614" lon="2.03412">
        <ele>123.29</ele>
        <time>2016-02-07T08:43:36Z</time>
      </trkpt>
      <trkpt lat="48.55592" lon="2.03439">
        <ele>125.9</ele>
        <time>2016-02-07T08:44:04Z</time>
      </trkpt>
      <trkpt lat="48.55582" lon="2.03452">
        <ele>126.26</ele>
        <time>2016-02-07T08:44:16Z</time>
      </trkpt>
      <trkpt lat="48.55561" lon="2.03478">
        <ele>126.79</ele>
        <time>2016-02-07T08:44:39Z</time>
      </trkpt>
      <trkpt lat="48.55548" lon="2.03499">
        <ele>126.8</ele>
        <time>2016-02-07T08:44:53Z</time>
      </trkpt>
      <trkpt lat="48.55533" lon="2.03515">
        <ele>127.1</ele>
        <time>2016-02-07T08:45:08Z</time>
      </trkpt>
      <trkpt lat="48.5551" lon="2.03534">
        <ele>126.76</ele>
        <time>2016-02-07T08:45:30Z</time>
      </trkpt>
      <trkpt lat="48.55485" lon="2.03554">
        <ele>126.9</ele>
        <time>2016-02-07T08:45:53Z</time>
      </trkpt>
      <trkpt lat="48.55466" lon="2.03574">
        <ele>128.35</ele>
        <time>2016-02-07T08:46:15Z</time>
      </trkpt>
      <trkpt lat="48.55459" lon="2.03585">
        <ele>128.84</ele>
        <time>2016-02-07T08:46:30Z</time>
      </trkpt>
      <trkpt lat="48.55456" lon="2.03587">
        <ele>128.81</ele>
        <time>2016-02-07T08:46:32Z</time>
      </trkpt>
      <trkpt lat="48.55454" lon="2.0359">
        <ele>128.67</ele>
        <time>2016-02-07T08:46:37Z</time>
      </trkpt>
      <trkpt lat="48.5545" lon="2.03593">
        <ele>128.59</ele>
        <time>2016-02-07T08:53:16Z</time>
      </trkpt>
      <trkpt lat="48.55446" lon="2.03594">
        <ele>128.74</ele>
        <time>2016-02-07T08:53:31Z</time>
      </trkpt>
      <trkpt lat="48.55438" lon="2.03606">
        <ele>129.52</ele>
        <time>2016-02-07T08:53:50Z</time>
      </trkpt>
      <trkpt lat="48.55422" lon="2.0362">
        <ele>129.96</ele>
        <time>2016-02-07T08:54:08Z</time>
      </trkpt>
      <trkpt lat="48.55415" lon="2.03623">
        <ele>130.7</ele>
        <time>2016-02-07T08:54:19Z</time>
      </trkpt>
      <trkpt lat="48.55406" lon="2.03629">
        <ele>131.25</ele>
        <time>2016-02-07T08:54:31Z</time>
      </trkpt>
      <trkpt lat="48.55404" lon="2.03631">
        <ele>131.43</ele>
        <time>2016-02-07T08:54:34Z</time>
      </trkpt>
      <trkpt lat="48.55388" lon="2.03642">
        <ele>132.57</ele>
        <time>2016-02-07T08:54:47Z</time>
      </trkpt>
      <trkpt lat="48.5538" lon="2.03651">
        <ele>132.76</ele>
        <time>2016-02-07T08:54:50Z</time>
      </trkpt>
      <trkpt lat="48.55359" lon="2.03678">
        <ele>134.76</ele>
        <time>2016-02-07T08:55:11Z</time>
      </trkpt>
      <trkpt lat="48.55345" lon="2.03701">
        <ele>136.21</ele>
        <time>2016-02-07T08:55:29Z</time>
      </trkpt>
      <trkpt lat="48.55329" lon="2.03724">
        <ele>137.51</ele>
        <time>2016-02-07T08:55:48Z</time>
      </trkpt>
      <trkpt lat="48.55311" lon="2.03742">
        <ele>139.55</ele>
        <time>2016-02-07T08:56:08Z</time>
      </trkpt>
      <trkpt lat="48.55295" lon="2.03753">
        <ele>140.65</ele>
        <time>2016-02-07T08:56:27Z</time>
      </trkpt>
      <trkpt lat="48.55273" lon="2.03772">
        <ele>141.32</ele>
        <time>2016-02-07T08:56:48Z</time>
      </trkpt>
      <trkpt lat="48.55256" lon="2.0378">
        <ele>142.17</ele>
        <time>2016-02-07T08:57:05Z</time>
      </trkpt>
      <trkpt lat="48.55236" lon="2.03786">
        <ele>142.7</ele>
        <time>2016-02-07T08:57:25Z</time>
      </trkpt>
      <trkpt lat="48.55217" lon="2.0379">
        <ele>142.89</ele>
        <time>2016-02-07T08:57:45Z</time>
      </trkpt>
      <trkpt lat="48.55132" lon="2.03748">
        <ele>145.71</ele>
        <time>2016-02-07T08:59:05Z</time>
      </trkpt>
      <trkpt lat="48.55111" lon="2.03728">
        <ele>146.45</ele>
        <time>2016-02-07T08:59:25Z</time>
      </trkpt>
      <trkpt lat="48.55095" lon="2.03712">
        <ele>147.12</ele>
        <time>2016-02-07T08:59:44Z</time>
      </trkpt>
      <trkpt lat="48.55079" lon="2.037">
        <ele>147.77</ele>
        <time>2016-02-07T09:00:02Z</time>
      </trkpt>
      <trkpt lat="48.55065" lon="2.03681">
        <ele>148.48</ele>
        <time>2016-02-07T09:00:22Z</time>
      </trkpt>
      <trkpt lat="48.55043" lon="2.03667">
        <ele>148.46</ele>
        <time>2016-02-07T09:00:44Z</time>
      </trkpt>
      <trkpt lat="48.55026" lon="2.03655">
        <ele>148.88</ele>
        <time>2016-02-07T09:01:04Z</time>
      </trkpt>
      <trkpt lat="48.55002" lon="2.03646">
        <ele>149.26</ele>
        <time>2016-02-07T09:01:25Z</time>
      </trkpt>
      <trkpt lat="48.54985" lon="2.03639">
        <ele>149.58</ele>
        <time>2016-02-07T09:01:44Z</time>
      </trkpt>
      <trkpt lat="48.54962" lon="2.0363">
        <ele>149.62</ele>
        <time>2016-02-07T09:02:08Z</time>
      </trkpt>
      <trkpt lat="48.54944" lon="2.03622">
        <ele>149.86</ele>
        <time>2016-02-07T09:02:26Z</time>
      </trkpt>
      <trkpt lat="48.54927" lon="2.03618">
        <ele>150.38</ele>
        <time>2016-02-07T09:02:45Z</time>
      </trkpt>
      <trkpt lat="48.5491" lon="2.03606">
        <ele>151.13</ele>
        <time>2016-02-07T09:03:05Z</time>
      </trkpt>
      <trkpt lat="48.54889" lon="2.03597">
        <ele>151.65</ele>
        <time>2016-02-07T09:03:25Z</time>
      </trkpt>
      <trkpt lat="48.54873" lon="2.03591">
        <ele>151.52</ele>
        <time>2016-02-07T09:03:43Z</time>
      </trkpt>
      <trkpt lat="48.54851" lon="2.03579">
        <ele>151.44</ele>
        <time>2016-02-07T09:04:07Z</time>
      </trkpt>
      <trkpt lat="48.54832" lon="2.0357">
        <ele>150.65</ele>
        <time>2016-02-07T09:04:25Z</time>
      </trkpt>
      <trkpt lat="48.54811" lon="2.03566">
        <ele>150.25</ele>
        <time>2016-02-07T09:04:45Z</time>
      </trkpt>
      <trkpt lat="48.54793" lon="2.03561">
        <ele>150</ele>
        <time>2016-02-07T09:05:04Z</time>
      </trkpt>
      <trkpt lat="48.54774" lon="2.03553">
        <ele>149.37</ele>
        <time>2016-02-07T09:05:23Z</time>
      </trkpt>
      <trkpt lat="48.54771" lon="2.03552">
        <ele>149.35</ele>
        <time>2016-02-07T09:05:25Z</time>
      </trkpt>
      <trkpt lat="48.54756" lon="2.03544">
        <ele>148.6</ele>
        <time>2016-02-07T09:05:37Z</time>
      </trkpt>
      <trkpt lat="48.54754" lon="2.03544">
        <ele>148.34</ele>
        <time>2016-02-07T09:05:39Z</time>
      </trkpt>
      <trkpt lat="48.54745" lon="2.03537">
        <ele>148.19</ele>
        <time>2016-02-07T09:05:53Z</time>
      </trkpt>
      <trkpt lat="48.54735" lon="2.0353">
        <ele>148.19</ele>
        <time>2016-02-07T09:06:05Z</time>
      </trkpt>
      <trkpt lat="48.54721" lon="2.03526">
        <ele>147.29</ele>
        <time>2016-02-07T09:06:18Z</time>
      </trkpt>
      <trkpt lat="48.54705" lon="2.03516">
        <ele>147.83</ele>
        <time>2016-02-07T09:06:32Z</time>
      </trkpt>
      <trkpt lat="48.54703" lon="2.03516">
        <ele>147.84</ele>
        <time>2016-02-07T09:06:34Z</time>
      </trkpt>
      <trkpt lat="48.54698" lon="2.03511">
        <ele>147.78</ele>
        <time>2016-02-07T09:06:39Z</time>
      </trkpt>
      <trkpt lat="48.54688" lon="2.03505">
        <ele>147.86</ele>
        <time>2016-02-07T09:06:50Z</time>
      </trkpt>
      <trkpt lat="48.54678" lon="2.03501">
        <ele>147.63</ele>
        <time>2016-02-07T09:07:01Z</time>
      </trkpt>
      <trkpt lat="48.54673" lon="2.03498">
        <ele>147.81</ele>
        <time>2016-02-07T09:07:05Z</time>
      </trkpt>
      <trkpt lat="48.5467" lon="2.03495">
        <ele>147.95</ele>
        <time>2016-02-07T09:07:08Z</time>
      </trkpt>
      <trkpt lat="48.54656" lon="2.03492">
        <ele>148.17</ele>
        <time>2016-02-07T09:07:24Z</time>
      </trkpt>
      <trkpt lat="48.54642" lon="2.03487">
        <ele>148.25</ele>
        <time>2016-02-07T09:07:39Z</time>
      </trkpt>
      <trkpt lat="48.54627" lon="2.0348">
        <ele>148.92</ele>
        <time>2016-02-07T09:07:53Z</time>
      </trkpt>
      <trkpt lat="48.54616" lon="2.03475">
        <ele>148.8</ele>
        <time>2016-02-07T09:08:04Z</time>
      </trkpt>
      <trkpt lat="48.54609" lon="2.03471">
        <ele>149.19</ele>
        <time>2016-02-07T09:08:14Z</time>
      </trkpt>
      <trkpt lat="48.54604" lon="2.03469">
        <ele>149.02</ele>
        <time>2016-02-07T09:08:20Z</time>
      </trkpt>
      <trkpt lat="48.54591" lon="2.03464">
        <ele>148.76</ele>
        <time>2016-02-07T09:08:34Z</time>
      </trkpt>
      <trkpt lat="48.54586" lon="2.03461">
        <ele>148.82</ele>
        <time>2016-02-07T09:08:46Z</time>
      </trkpt>
      <trkpt lat="48.54575" lon="2.03456">
        <ele>149.02</ele>
        <time>2016-02-07T09:09:04Z</time>
      </trkpt>
      <trkpt lat="48.54567" lon="2.03453">
        <ele>148.66</ele>
        <time>2016-02-07T09:09:24Z</time>
      </trkpt>
      <trkpt lat="48.54557" lon="2.03444">
        <ele>148.75</ele>
        <time>2016-02-07T09:09:43Z</time>
      </trkpt>
      <trkpt lat="48.54551" lon="2.0344">
        <ele>148.81</ele>
        <time>2016-02-07T09:09:48Z</time>
      </trkpt>
      <trkpt lat="48.54543" lon="2.03438">
        <ele>148.78</ele>
        <time>2016-02-07T09:09:55Z</time>
      </trkpt>
      <trkpt lat="48.54541" lon="2.03436">
        <ele>148.85</ele>
        <time>2016-02-07T09:09:57Z</time>
      </trkpt>
      <trkpt lat="48.54523" lon="2.03425">
        <ele>148.92</ele>
        <time>2016-02-07T09:10:12Z</time>
      </trkpt>
      <trkpt lat="48.54508" lon="2.03415">
        <ele>148.46</ele>
        <time>2016-02-07T09:10:26Z</time>
      </trkpt>
      <trkpt lat="48.54487" lon="2.0341">
        <ele>148.26</ele>
        <time>2016-02-07T09:10:48Z</time>
      </trkpt>
      <trkpt lat="48.54462" lon="2.03417">
        <ele>148.08</ele>
        <time>2016-02-07T09:11:09Z</time>
      </trkpt>
      <trkpt lat="48.54436" lon="2.03425">
        <ele>147.73</ele>
        <time>2016-02-07T09:11:31Z</time>
      </trkpt>
      <trkpt lat="48.54418" lon="2.03419">
        <ele>146.98</ele>
        <time>2016-02-07T09:11:48Z</time>
      </trkpt>
      <trkpt lat="48.54401" lon="2.03412">
        <ele>145.75</ele>
        <time>2016-02-07T09:12:03Z</time>
      </trkpt>
      <trkpt lat="48.54377" lon="2.03404">
        <ele>144.71</ele>
        <time>2016-02-07T09:12:22Z</time>
      </trkpt>
      <trkpt lat="48.54373" lon="2.03403">
        <ele>144.42</ele>
        <time>2016-02-07T09:12:25Z</time>
      </trkpt>
      <trkpt lat="48.5436" lon="2.03399">
        <ele>143.22</ele>
        <time>2016-02-07T09:12:38Z</time>
      </trkpt>
      <trkpt lat="48.54353" lon="2.03396">
        <ele>142.62</ele>
        <time>2016-02-07T09:12:46Z</time>
      </trkpt>
      <trkpt lat="48.54351" lon="2.03395">
        <ele>142.55</ele>
        <time>2016-02-07T09:12:48Z</time>
      </trkpt>
      <trkpt lat="48.54344" lon="2.03391">
        <ele>142.11</ele>
        <time>2016-02-07T09:12:55Z</time>
      </trkpt>
      <trkpt lat="48.54338" lon="2.03389">
        <ele>141.78</ele>
        <time>2016-02-07T09:13:00Z</time>
      </trkpt>
      <trkpt lat="48.54318" lon="2.03377">
        <ele>141.24</ele>
        <time>2016-02-07T09:13:16Z</time>
      </trkpt>
      <trkpt lat="48.54296" lon="2.03363">
        <ele>140.4</ele>
        <time>2016-02-07T09:13:34Z</time>
      </trkpt>
      <trkpt lat="48.54284" lon="2.03356">
        <ele>140.02</ele>
        <time>2016-02-07T09:13:44Z</time>
      </trkpt>
      <trkpt lat="48.54268" lon="2.03358">
        <ele>139.75</ele>
        <time>2016-02-07T09:13:58Z</time>
      </trkpt>
      <trkpt lat="48.54254" lon="2.03345">
        <ele>139.24</ele>
        <time>2016-02-07T09:14:13Z</time>
      </trkpt>
      <trkpt lat="48.54241" lon="2.03341">
        <ele>138.51</ele>
        <time>2016-02-07T09:14:26Z</time>
      </trkpt>
      <trkpt lat="48.54228" lon="2.03336">
        <ele>137.94</ele>
        <time>2016-02-07T09:14:38Z</time>
      </trkpt>
      <trkpt lat="48.54213" lon="2.03335">
        <ele>137.75</ele>
        <time>2016-02-07T09:14:52Z</time>
      </trkpt>
      <trkpt lat="48.54201" lon="2.03333">
        <ele>137.42</ele>
        <time>2016-02-07T09:15:06Z</time>
      </trkpt>
      <trkpt lat="48.54198" lon="2.03327">
        <ele>137.17</ele>
        <time>2016-02-07T09:15:11Z</time>
      </trkpt>
      <trkpt lat="48.54195" lon="2.03324">
        <ele>136.89</ele>
        <time>2016-02-07T09:15:15Z</time>
      </trkpt>
      <trkpt lat="48.54183" lon="2.03306">
        <ele>136.73</ele>
        <time>2016-02-07T09:15:31Z</time>
      </trkpt>
      <trkpt lat="48.54176" lon="2.03294">
        <ele>137.32</ele>
        <time>2016-02-07T09:15:40Z</time>
      </trkpt>
      <trkpt lat="48.5417" lon="2.03287">
        <ele>137.45</ele>
        <time>2016-02-07T09:15:46Z</time>
      </trkpt>
      <trkpt lat="48.54164" lon="2.03284">
        <ele>137.53</ele>
        <time>2016-02-07T09:15:51Z</time>
      </trkpt>
      <trkpt lat="48.54153" lon="2.03277">
        <ele>136.36</ele>
        <time>2016-02-07T09:16:00Z</time>
      </trkpt>
      <trkpt lat="48.54145" lon="2.03268">
        <ele>135.8</ele>
        <time>2016-02-07T09:16:08Z</time>
      </trkpt>
      <trkpt lat="48.54139" lon="2.03257">
        <ele>135.64</ele>
        <time>2016-02-07T09:16:18Z</time>
      </trkpt>
      <trkpt lat="48.54134" lon="2.03253">
        <ele>135.75</ele>
        <time>2016-02-07T09:16:22Z</time>
      </trkpt>
      <trkpt lat="48.54125" lon="2.03241">
        <ele>136.11</ele>
        <time>2016-02-07T09:16:34Z</time>
      </trkpt>
      <trkpt lat="48.54116" lon="2.03226">
        <ele>136.27</ele>
        <time>2016-02-07T09:16:48Z</time>
      </trkpt>
      <trkpt lat="48.54111" lon="2.03219">
        <ele>136.2</ele>
        <time>2016-02-07T09:16:54Z</time>
      </trkpt>
      <trkpt lat="48.54108" lon="2.03213">
        <ele>136.34</ele>
        <time>2016-02-07T09:16:58Z</time>
      </trkpt>
      <trkpt lat="48.541" lon="2.03193">
        <ele>136.21</ele>
        <time>2016-02-07T09:17:12Z</time>
      </trkpt>
      <trkpt lat="48.54094" lon="2.03173">
        <ele>136.81</ele>
        <time>2016-02-07T09:17:26Z</time>
      </trkpt>
      <trkpt lat="48.54089" lon="2.03154">
        <ele>137</ele>
        <time>2016-02-07T09:17:37Z</time>
      </trkpt>
      <trkpt lat="48.54082" lon="2.03128">
        <ele>137.47</ele>
        <time>2016-02-07T09:17:52Z</time>
      </trkpt>
      <trkpt lat="48.54075" lon="2.03102">
        <ele>138.16</ele>
        <time>2016-02-07T09:18:08Z</time>
      </trkpt>
      <trkpt lat="48.54065" lon="2.03075">
        <ele>138.31</ele>
        <time>2016-02-07T09:18:25Z</time>
      </trkpt>
      <trkpt lat="48.54053" lon="2.03049">
        <ele>138.63</ele>
        <time>2016-02-07T09:18:43Z</time>
      </trkpt>
      <trkpt lat="48.54041" lon="2.03025">
        <ele>139.28</ele>
        <time>2016-02-07T09:18:59Z</time>
      </trkpt>
      <trkpt lat="48.5403" lon="2.03003">
        <ele>139.55</ele>
        <time>2016-02-07T09:19:14Z</time>
      </trkpt>
      <trkpt lat="48.54019" lon="2.02982">
        <ele>139.39</ele>
        <time>2016-02-07T09:19:29Z</time>
      </trkpt>
      <trkpt lat="48.54007" lon="2.02959">
        <ele>140.23</ele>
        <time>2016-02-07T09:19:45Z</time>
      </trkpt>
      <trkpt lat="48.53994" lon="2.02933">
        <ele>141.01</ele>
        <time>2016-02-07T09:20:03Z</time>
      </trkpt>
      <trkpt lat="48.53981" lon="2.02907">
        <ele>141.05</ele>
        <time>2016-02-07T09:20:19Z</time>
      </trkpt>
      <trkpt lat="48.53964" lon="2.02874">
        <ele>141.69</ele>
        <time>2016-02-07T09:20:40Z</time>
      </trkpt>
      <trkpt lat="48.53953" lon="2.02854">
        <ele>142.11</ele>
        <time>2016-02-07T09:20:54Z</time>
      </trkpt>
      <trkpt lat="48.53943" lon="2.02836">
        <ele>142.3</ele>
        <time>2016-02-07T09:21:06Z</time>
      </trkpt>
      <trkpt lat="48.53929" lon="2.02809">
        <ele>142.48</ele>
        <time>2016-02-07T09:21:25Z</time>
      </trkpt>
      <trkpt lat="48.53915" lon="2.02785">
        <ele>143.56</ele>
        <time>2016-02-07T09:21:42Z</time>
      </trkpt>
      <trkpt lat="48.53902" lon="2.02762">
        <ele>143.56</ele>
        <time>2016-02-07T09:21:58Z</time>
      </trkpt>
      <trkpt lat="48.53889" lon="2.02739">
        <ele>144.7</ele>
        <time>2016-02-07T09:22:15Z</time>
      </trkpt>
      <trkpt lat="48.53877" lon="2.02715">
        <ele>145.2</ele>
        <time>2016-02-07T09:22:32Z</time>
      </trkpt>
      <trkpt lat="48.53864" lon="2.02693">
        <ele>144.99</ele>
        <time>2016-02-07T09:22:47Z</time>
      </trkpt>
      <trkpt lat="48.53853" lon="2.02672">
        <ele>145.45</ele>
        <time>2016-02-07T09:23:02Z</time>
      </trkpt>
      <trkpt lat="48.53842" lon="2.02652">
        <ele>146.12</ele>
        <time>2016-02-07T09:23:16Z</time>
      </trkpt>
      <trkpt lat="48.53832" lon="2.02634">
        <ele>146.01</ele>
        <time>2016-02-07T09:23:28Z</time>
      </trkpt>
      <trkpt lat="48.53822" lon="2.02617">
        <ele>145.76</ele>
        <time>2016-02-07T09:23:41Z</time>
      </trkpt>
      <trkpt lat="48.53811" lon="2.02599">
        <ele>146.81</ele>
        <time>2016-02-07T09:23:54Z</time>
      </trkpt>
      <trkpt lat="48.53798" lon="2.02577">
        <ele>146.89</ele>
        <time>2016-02-07T09:24:10Z</time>
      </trkpt>
      <trkpt lat="48.53787" lon="2.02558">
        <ele>147.36</ele>
        <time>2016-02-07T09:24:23Z</time>
      </trkpt>
      <trkpt lat="48.53778" lon="2.02543">
        <ele>147.43</ele>
        <time>2016-02-07T09:24:35Z</time>
      </trkpt>
      <trkpt lat="48.53767" lon="2.02524">
        <ele>147.35</ele>
        <time>2016-02-07T09:24:48Z</time>
      </trkpt>
      <trkpt lat="48.53757" lon="2.02507">
        <ele>148.14</ele>
        <time>2016-02-07T09:25:02Z</time>
      </trkpt>
      <trkpt lat="48.53746" lon="2.02488">
        <ele>147.95</ele>
        <time>2016-02-07T09:25:16Z</time>
      </trkpt>
      <trkpt lat="48.5374" lon="2.02471">
        <ele>148.11</ele>
        <time>2016-02-07T09:25:27Z</time>
      </trkpt>
      <trkpt lat="48.5374" lon="2.02459">
        <ele>148.32</ele>
        <time>2016-02-07T09:25:34Z</time>
      </trkpt>
      <trkpt lat="48.53743" lon="2.02429">
        <ele>148.05</ele>
        <time>2016-02-07T09:25:52Z</time>
      </trkpt>
      <trkpt lat="48.5375" lon="2.02403">
        <ele>147.99</ele>
        <time>2016-02-07T09:26:08Z</time>
      </trkpt>
      <trkpt lat="48.53755" lon="2.02379">
        <ele>148.67</ele>
        <time>2016-02-07T09:26:22Z</time>
      </trkpt>
      <trkpt lat="48.53756" lon="2.02375">
        <ele>148.61</ele>
        <time>2016-02-07T09:26:24Z</time>
      </trkpt>
      <trkpt lat="48.53763" lon="2.02348">
        <ele>148.41</ele>
        <time>2016-02-07T09:26:38Z</time>
      </trkpt>
      <trkpt lat="48.5377" lon="2.02323">
        <ele>148.74</ele>
        <time>2016-02-07T09:26:52Z</time>
      </trkpt>
      <trkpt lat="48.53777" lon="2.02297">
        <ele>148.72</ele>
        <time>2016-02-07T09:27:06Z</time>
      </trkpt>
      <trkpt lat="48.53779" lon="2.02291">
        <ele>148.76</ele>
        <time>2016-02-07T09:27:10Z</time>
      </trkpt>
      <trkpt lat="48.5378" lon="2.02283">
        <ele>148.69</ele>
        <time>2016-02-07T09:27:15Z</time>
      </trkpt>
      <trkpt lat="48.53786" lon="2.02259">
        <ele>148.48</ele>
        <time>2016-02-07T09:27:30Z</time>
      </trkpt>
      <trkpt lat="48.53793" lon="2.02239">
        <ele>148.59</ele>
        <time>2016-02-07T09:27:43Z</time>
      </trkpt>
      <trkpt lat="48.53798" lon="2.02215">
        <ele>148.98</ele>
        <time>2016-02-07T09:27:57Z</time>
      </trkpt>
      <trkpt lat="48.53798" lon="2.02214">
        <ele>149</ele>
        <time>2016-02-07T09:27:58Z</time>
      </trkpt>
      <trkpt lat="48.538" lon="2.02204">
        <ele>148.6</ele>
        <time>2016-02-07T09:28:05Z</time>
      </trkpt>
      <trkpt lat="48.53801" lon="2.02198">
        <ele>148.53</ele>
        <time>2016-02-07T09:28:08Z</time>
      </trkpt>
      <trkpt lat="48.53804" lon="2.02189">
        <ele>148.51</ele>
        <time>2016-02-07T09:28:14Z</time>
      </trkpt>
      <trkpt lat="48.53805" lon="2.02186">
        <ele>148.72</ele>
        <time>2016-02-07T09:28:16Z</time>
      </trkpt>
      <trkpt lat="48.53811" lon="2.02166">
        <ele>148.72</ele>
        <time>2016-02-07T09:28:28Z</time>
      </trkpt>
      <trkpt lat="48.53819" lon="2.02139">
        <ele>149.63</ele>
        <time>2016-02-07T09:28:43Z</time>
      </trkpt>
      <trkpt lat="48.53824" lon="2.02114">
        <ele>149.54</ele>
        <time>2016-02-07T09:28:56Z</time>
      </trkpt>
      <trkpt lat="48.53831" lon="2.02084">
        <ele>149.52</ele>
        <time>2016-02-07T09:29:12Z</time>
      </trkpt>
      <trkpt lat="48.53837" lon="2.02063">
        <ele>149.53</ele>
        <time>2016-02-07T09:29:25Z</time>
      </trkpt>
      <trkpt lat="48.53841" lon="2.0205">
        <ele>149.5</ele>
        <time>2016-02-07T09:29:33Z</time>
      </trkpt>
      <trkpt lat="48.5385" lon="2.02024">
        <ele>149.67</ele>
        <time>2016-02-07T09:29:48Z</time>
      </trkpt>
      <trkpt lat="48.53857" lon="2.02003">
        <ele>150.04</ele>
        <time>2016-02-07T09:30:01Z</time>
      </trkpt>
      <trkpt lat="48.53865" lon="2.01981">
        <ele>149.58</ele>
        <time>2016-02-07T09:30:15Z</time>
      </trkpt>
      <trkpt lat="48.53865" lon="2.01979">
        <ele>149.59</ele>
        <time>2016-02-07T09:30:16Z</time>
      </trkpt>
      <trkpt lat="48.53867" lon="2.01971">
        <ele>149.96</ele>
        <time>2016-02-07T09:30:20Z</time>
      </trkpt>
      <trkpt lat="48.53875" lon="2.01948">
        <ele>150.02</ele>
        <time>2016-02-07T09:30:34Z</time>
      </trkpt>
      <trkpt lat="48.53882" lon="2.01927">
        <ele>149.85</ele>
        <time>2016-02-07T09:30:47Z</time>
      </trkpt>
      <trkpt lat="48.53882" lon="2.01924">
        <ele>149.85</ele>
        <time>2016-02-07T09:30:48Z</time>
      </trkpt>
      <trkpt lat="48.53889" lon="2.01903">
        <ele>150.27</ele>
        <time>2016-02-07T09:31:02Z</time>
      </trkpt>
      <trkpt lat="48.53894" lon="2.01886">
        <ele>150.1</ele>
        <time>2016-02-07T09:31:12Z</time>
      </trkpt>
      <trkpt lat="48.53896" lon="2.01884">
        <ele>150.08</ele>
        <time>2016-02-07T09:31:14Z</time>
      </trkpt>
      <trkpt lat="48.53898" lon="2.0188">
        <ele>150.06</ele>
        <time>2016-02-07T09:31:17Z</time>
      </trkpt>
      <trkpt lat="48.53905" lon="2.01857">
        <ele>150.05</ele>
        <time>2016-02-07T09:31:30Z</time>
      </trkpt>
      <trkpt lat="48.5391" lon="2.01833">
        <ele>149.73</ele>
        <time>2016-02-07T09:31:43Z</time>
      </trkpt>
      <trkpt lat="48.53915" lon="2.01806">
        <ele>150.14</ele>
        <time>2016-02-07T09:31:56Z</time>
      </trkpt>
      <trkpt lat="48.53916" lon="2.01796">
        <ele>150.25</ele>
        <time>2016-02-07T09:32:02Z</time>
      </trkpt>
      <trkpt lat="48.53918" lon="2.01773">
        <ele>149.72</ele>
        <time>2016-02-07T09:32:13Z</time>
      </trkpt>
      <trkpt lat="48.53919" lon="2.0175">
        <ele>149.27</ele>
        <time>2016-02-07T09:32:26Z</time>
      </trkpt>
      <trkpt lat="48.53917" lon="2.0172">
        <ele>149.67</ele>
        <time>2016-02-07T09:32:41Z</time>
      </trkpt>
      <trkpt lat="48.53918" lon="2.01714">
        <ele>149.56</ele>
        <time>2016-02-07T09:32:49Z</time>
      </trkpt>
      <trkpt lat="48.53916" lon="2.0168">
        <ele>149.08</ele>
        <time>2016-02-07T09:34:10Z</time>
      </trkpt>
      <trkpt lat="48.53915" lon="2.01677">
        <ele>149.07</ele>
        <time>2016-02-07T09:34:12Z</time>
      </trkpt>
      <trkpt lat="48.53915" lon="2.01675">
        <ele>149.08</ele>
        <time>2016-02-07T09:34:13Z</time>
      </trkpt>
      <trkpt lat="48.53916" lon="2.01657">
        <ele>149.4</ele>
        <time>2016-02-07T09:34:27Z</time>
      </trkpt>
      <trkpt lat="48.53915" lon="2.01646">
        <ele>149.51</ele>
        <time>2016-02-07T09:34:33Z</time>
      </trkpt>
      <trkpt lat="48.53914" lon="2.01631">
        <ele>149.79</ele>
        <time>2016-02-07T09:34:41Z</time>
      </trkpt>
      <trkpt lat="48.53914" lon="2.01616">
        <ele>149.79</ele>
        <time>2016-02-07T09:34:51Z</time>
      </trkpt>
      <trkpt lat="48.53914" lon="2.01608">
        <ele>149.9</ele>
        <time>2016-02-07T09:34:55Z</time>
      </trkpt>
      <trkpt lat="48.53918" lon="2.01542">
        <ele>149.76</ele>
        <time>2016-02-07T09:35:49Z</time>
      </trkpt>
      <trkpt lat="48.5392" lon="2.0153">
        <ele>149.78</ele>
        <time>2016-02-07T09:35:57Z</time>
      </trkpt>
      <trkpt lat="48.53924" lon="2.01517">
        <ele>150.12</ele>
        <time>2016-02-07T09:36:05Z</time>
      </trkpt>
      <trkpt lat="48.53924" lon="2.01515">
        <ele>150.15</ele>
        <time>2016-02-07T09:36:06Z</time>
      </trkpt>
      <trkpt lat="48.53928" lon="2.01491">
        <ele>149.76</ele>
        <time>2016-02-07T09:36:20Z</time>
      </trkpt>
      <trkpt lat="48.53929" lon="2.01484">
        <ele>149.85</ele>
        <time>2016-02-07T09:36:25Z</time>
      </trkpt>
      <trkpt lat="48.5393" lon="2.01477">
        <ele>150.01</ele>
        <time>2016-02-07T09:36:30Z</time>
      </trkpt>
      <trkpt lat="48.53931" lon="2.01462">
        <ele>150.14</ele>
        <time>2016-02-07T09:36:38Z</time>
      </trkpt>
      <trkpt lat="48.53933" lon="2.01438">
        <ele>150.02</ele>
        <time>2016-02-07T09:36:52Z</time>
      </trkpt>
      <trkpt lat="48.53934" lon="2.01412">
        <ele>150</ele>
        <time>2016-02-07T09:37:06Z</time>
      </trkpt>
      <trkpt lat="48.53934" lon="2.01409">
        <ele>150.13</ele>
        <time>2016-02-07T09:37:08Z</time>
      </trkpt>
      <trkpt lat="48.53934" lon="2.01407">
        <ele>150.18</ele>
        <time>2016-02-07T09:37:09Z</time>
      </trkpt>
      <trkpt lat="48.53935" lon="2.014">
        <ele>150.27</ele>
        <time>2016-02-07T09:37:13Z</time>
      </trkpt>
      <trkpt lat="48.53935" lon="2.01398">
        <ele>150.27</ele>
        <time>2016-02-07T09:37:14Z</time>
      </trkpt>
      <trkpt lat="48.53934" lon="2.01365">
        <ele>150.18</ele>
        <time>2016-02-07T09:37:32Z</time>
      </trkpt>
      <trkpt lat="48.53933" lon="2.01333">
        <ele>150.34</ele>
        <time>2016-02-07T09:37:49Z</time>
      </trkpt>
      <trkpt lat="48.53931" lon="2.01303">
        <ele>150.06</ele>
        <time>2016-02-07T09:38:06Z</time>
      </trkpt>
      <trkpt lat="48.53934" lon="2.01267">
        <ele>150.49</ele>
        <time>2016-02-07T09:38:25Z</time>
      </trkpt>
      <trkpt lat="48.53939" lon="2.01248">
        <ele>149.97</ele>
        <time>2016-02-07T09:38:41Z</time>
      </trkpt>
      <trkpt lat="48.53939" lon="2.01246">
        <ele>150.01</ele>
        <time>2016-02-07T09:38:46Z</time>
      </trkpt>
      <trkpt lat="48.53945" lon="2.01238">
        <ele>151.36</ele>
        <time>2016-02-07T09:41:04Z</time>
      </trkpt>
      <trkpt lat="48.53944" lon="2.01239">
        <ele>151.27</ele>
        <time>2016-02-07T09:41:06Z</time>
      </trkpt>
      <trkpt lat="48.53944" lon="2.01238">
        <ele>151.04</ele>
        <time>2016-02-07T09:41:10Z</time>
      </trkpt>
      <trkpt lat="48.53945" lon="2.01222">
        <ele>150.63</ele>
        <time>2016-02-07T09:45:04Z</time>
      </trkpt>
      <trkpt lat="48.5393" lon="2.01221">
        <ele>155.953125</ele>
      </trkpt>
      <trkpt lat="48.53932" lon="2.01207">
        <ele>156.0859375</ele>
      </trkpt>
      <trkpt lat="48.53935" lon="2.01196">
        <ele>156.08984375</ele>
      </trkpt>
      <trkpt lat="48.53939" lon="2.01184">
        <ele>156.11328125</ele>
      </trkpt>
      <trkpt lat="48.53943" lon="2.01169">
        <ele>156.10546875</ele>
      </trkpt>
      <trkpt lat="48.53947" lon="2.01156">
        <ele>156.0859375</ele>
      </trkpt>
      <trkpt lat="48.53951" lon="2.01138">
        <ele>156.35546875</ele>
      </trkpt>
      <trkpt lat="48.53954" lon="2.01126">
        <ele>156.4140625</ele>
      </trkpt>
      <trkpt lat="48.53956" lon="2.01121">
        <ele>156.5390625</ele>
      </trkpt>
      <trkpt lat="48.53958" lon="2.01113">
        <ele>156.51953125</ele>
      </trkpt>
      <trkpt lat="48.53961" lon="2.01104">
        <ele>156.50390625</ele>
      </trkpt>
      <trkpt lat="48.53964" lon="2.01093">
        <ele>156.5</ele>
      </trkpt>
      <trkpt lat="48.53969" lon="2.01073">
        <ele>156.6796875</ele>
      </trkpt>
      <trkpt lat="48.53973" lon="2.01063">
        <ele>156.859375</ele>
      </trkpt>
      <trkpt lat="48.53975" lon="2.01053">
        <ele>156.859375</ele>
      </trkpt>
      <trkpt lat="48.53977" lon="2.01048">
        <ele>156.859375</ele>
      </trkpt>
      <trkpt lat="48.53979" lon="2.01042">
        <ele>156.8515625</ele>
      </trkpt>
      <trkpt lat="48.53981" lon="2.01033">
        <ele>156.83203125</ele>
      </trkpt>
      <trkpt lat="48.53983" lon="2.01024">
        <ele>156.8046875</ele>
      </trkpt>
      <trkpt lat="48.53986" lon="2.01015">
        <ele>156.796875</ele>
      </trkpt>
      <trkpt lat="48.53991" lon="2.00997">
        <ele>156.921875</ele>
      </trkpt>
      <trkpt lat="48.53998" lon="2.00974">
        <ele>157.0546875</ele>
      </trkpt>
      <trkpt lat="48.54002" lon="2.00963">
        <ele>157</ele>
      </trkpt>
      <trkpt lat="48.54003" lon="2.00957">
        <ele>157.0625</ele>
      </trkpt>
      <trkpt lat="48.54005" lon="2.00949">
        <ele>157.375</ele>
      </trkpt>
      <trkpt lat="48.54008" lon="2.00941">
        <ele>157.484375</ele>
      </trkpt>
      <trkpt lat="48.54012" lon="2.00928">
        <ele>157.55078125</ele>
      </trkpt>
      <trkpt lat="48.54017" lon="2.00914">
        <ele>157.53515625</ele>
      </trkpt>
      <trkpt lat="48.5402" lon="2.00903">
        <ele>157.51953125</ele>
      </trkpt>
      <trkpt lat="48.54027" lon="2.00886">
        <ele>157.5078125</ele>
      </trkpt>
      <trkpt lat="48.54032" lon="2.00872">
        <ele>157.48046875</ele>
      </trkpt>
      <trkpt lat="48.5404" lon="2.0085">
        <ele>157.46484375</ele>
      </trkpt>
      <trkpt lat="48.54047" lon="2.00833">
        <ele>157.44140625</ele>
      </trkpt>
      <trkpt lat="48.54054" lon="2.00813">
        <ele>157.421875</ele>
      </trkpt>
      <trkpt lat="48.54062" lon="2.00792">
        <ele>157.40625</ele>
      </trkpt>
      <trkpt lat="48.54066" lon="2.00781">
        <ele>157.4296875</ele>
      </trkpt>
      <trkpt lat="48.54076" lon="2.00751">
        <ele>156.84375</ele>
      </trkpt>
      <trkpt lat="48.5409" lon="2.00721">
        <ele>157.12890625</ele>
      </trkpt>
      <trkpt lat="48.54101" lon="2.00696">
        <ele>157.05078125</ele>
      </trkpt>
      <trkpt lat="48.54106" lon="2.00668">
        <ele>157.140625</ele>
      </trkpt>
      <trkpt lat="48.54126" lon="2.00681">
        <ele>157.75390625</ele>
      </trkpt>
      <trkpt lat="48.54199" lon="2.00679">
        <ele>158</ele>
      </trkpt>
      <trkpt lat="48.54255" lon="2.0072">
        <ele>157.86328125</ele>
      </trkpt>
      <trkpt lat="48.54304" lon="2.00742">
        <ele>157.125</ele>
      </trkpt>
      <trkpt lat="48.54354" lon="2.00739">
        <ele>157</ele>
      </trkpt>
      <trkpt lat="48.54402" lon="2.00726">
        <ele>156.875</ele>
      </trkpt>
      <trkpt lat="48.54443" lon="2.00697">
        <ele>156.61328125</ele>
      </trkpt>
      <trkpt lat="48.54477" lon="2.0067">
        <ele>155.96875</ele>
      </trkpt>
      <trkpt lat="48.54514" lon="2.00636">
        <ele>155.67578125</ele>
      </trkpt>
      <trkpt lat="48.54546" lon="2.00603">
        <ele>155.80859375</ele>
      </trkpt>
      <trkpt lat="48.54587" lon="2.00545">
        <ele>154.37890625</ele>
      </trkpt>
      <trkpt lat="48.54637" lon="2.00501">
        <ele>153.30078125</ele>
      </trkpt>
      <trkpt lat="48.54683" lon="2.00451">
        <ele>152.45703125</ele>
      </trkpt>
      <trkpt lat="48.54739" lon="2.00402">
        <ele>150.6015625</ele>
      </trkpt>
      <trkpt lat="48.54819" lon="2.00325">
        <ele>146.01953125</ele>
      </trkpt>
      <trkpt lat="48.54875" lon="2.00272">
        <ele>142.01171875</ele>
      </trkpt>
      <trkpt lat="48.54913" lon="2.00238">
        <ele>140.13671875</ele>
      </trkpt>
      <trkpt lat="48.54934" lon="2.00227">
        <ele>138.9765625</ele>
      </trkpt>
      <trkpt lat="48.54989" lon="2.00232">
        <ele>138.34765625</ele>
      </trkpt>
      <trkpt lat="48.55026" lon="2.00231">
        <ele>128.55</ele>
        <time>2016-02-07T10:07:12Z</time>
      </trkpt>
      <trkpt lat="48.55029" lon="2.00232">
        <ele>128.59</ele>
        <time>2016-02-07T10:07:15Z</time>
      </trkpt>
      <trkpt lat="48.55043" lon="2.00231">
        <ele>128.97</ele>
        <time>2016-02-07T10:07:28Z</time>
      </trkpt>
      <trkpt lat="48.55063" lon="2.00232">
        <ele>129.09</ele>
        <time>2016-02-07T10:07:46Z</time>
      </trkpt>
      <trkpt lat="48.55064" lon="2.00231">
        <ele>129.17</ele>
        <time>2016-02-07T10:07:47Z</time>
      </trkpt>
      <trkpt lat="48.55065" lon="2.00231">
        <ele>129.23</ele>
        <time>2016-02-07T10:07:48Z</time>
      </trkpt>
      <trkpt lat="48.55066" lon="2.00231">
        <ele>129.28</ele>
        <time>2016-02-07T10:07:49Z</time>
      </trkpt>
      <trkpt lat="48.55067" lon="2.00231">
        <ele>129.35</ele>
        <time>2016-02-07T10:07:50Z</time>
      </trkpt>
      <trkpt lat="48.55075" lon="2.00231">
        <ele>128.83</ele>
        <time>2016-02-07T10:07:57Z</time>
      </trkpt>
      <trkpt lat="48.55076" lon="2.0023">
        <ele>128.78</ele>
        <time>2016-02-07T10:07:58Z</time>
      </trkpt>
      <trkpt lat="48.55077" lon="2.00229">
        <ele>128.75</ele>
        <time>2016-02-07T10:07:59Z</time>
      </trkpt>
      <trkpt lat="48.55078" lon="2.00229">
        <ele>128.75</ele>
        <time>2016-02-07T10:08:00Z</time>
      </trkpt>
      <trkpt lat="48.55092" lon="2.00231">
        <ele>128.87</ele>
        <time>2016-02-07T10:08:12Z</time>
      </trkpt>
      <trkpt lat="48.55093" lon="2.00231">
        <ele>128.89</ele>
        <time>2016-02-07T10:08:13Z</time>
      </trkpt>
      <trkpt lat="48.55096" lon="2.0023">
        <ele>128.92</ele>
        <time>2016-02-07T10:08:15Z</time>
      </trkpt>
      <trkpt lat="48.55097" lon="2.0023">
        <ele>128.93</ele>
        <time>2016-02-07T10:08:16Z</time>
      </trkpt>
      <trkpt lat="48.55098" lon="2.0023">
        <ele>128.94</ele>
        <time>2016-02-07T10:08:17Z</time>
      </trkpt>
      <trkpt lat="48.55099" lon="2.0023">
        <ele>128.93</ele>
        <time>2016-02-07T10:08:18Z</time>
      </trkpt>
      <trkpt lat="48.551" lon="2.0023">
        <ele>128.92</ele>
        <time>2016-02-07T10:08:19Z</time>
      </trkpt>
      <trkpt lat="48.55113" lon="2.00233">
        <ele>128.92</ele>
        <time>2016-02-07T10:08:31Z</time>
      </trkpt>
      <trkpt lat="48.55124" lon="2.00233">
        <ele>129.01</ele>
        <time>2016-02-07T10:08:42Z</time>
      </trkpt>
      <trkpt lat="48.55136" lon="2.00232">
        <ele>128.74</ele>
        <time>2016-02-07T10:08:55Z</time>
      </trkpt>
      <trkpt lat="48.55139" lon="2.00233">
        <ele>128.67</ele>
        <time>2016-02-07T10:08:57Z</time>
      </trkpt>
      <trkpt lat="48.5514" lon="2.00233">
        <ele>128.64</ele>
        <time>2016-02-07T10:08:58Z</time>
      </trkpt>
      <trkpt lat="48.55141" lon="2.00234">
        <ele>128.62</ele>
        <time>2016-02-07T10:08:59Z</time>
      </trkpt>
      <trkpt lat="48.55142" lon="2.00234">
        <ele>128.62</ele>
        <time>2016-02-07T10:09:00Z</time>
      </trkpt>
      <trkpt lat="48.55144" lon="2.00234">
        <ele>128.67</ele>
        <time>2016-02-07T10:09:01Z</time>
      </trkpt>
      <trkpt lat="48.55145" lon="2.00234">
        <ele>128.75</ele>
        <time>2016-02-07T10:09:02Z</time>
      </trkpt>
      <trkpt lat="48.55146" lon="2.00234">
        <ele>128.82</ele>
        <time>2016-02-07T10:09:03Z</time>
      </trkpt>
      <trkpt lat="48.55147" lon="2.00234">
        <ele>128.88</ele>
        <time>2016-02-07T10:09:04Z</time>
      </trkpt>
      <trkpt lat="48.55163" lon="2.00235">
        <ele>128.2</ele>
        <time>2016-02-07T10:09:19Z</time>
      </trkpt>
      <trkpt lat="48.5518" lon="2.00236">
        <ele>128.24</ele>
        <time>2016-02-07T10:09:34Z</time>
      </trkpt>
      <trkpt lat="48.55197" lon="2.00241">
        <ele>127.69</ele>
        <time>2016-02-07T10:09:49Z</time>
      </trkpt>
      <trkpt lat="48.55206" lon="2.0024">
        <ele>126.62</ele>
        <time>2016-02-07T10:09:58Z</time>
      </trkpt>
      <trkpt lat="48.55207" lon="2.00239">
        <ele>126.55</ele>
        <time>2016-02-07T10:09:59Z</time>
      </trkpt>
      <trkpt lat="48.55223" lon="2.0024">
        <ele>126.26</ele>
        <time>2016-02-07T10:10:13Z</time>
      </trkpt>
      <trkpt lat="48.55238" lon="2.0024">
        <ele>125.17</ele>
        <time>2016-02-07T10:10:29Z</time>
      </trkpt>
      <trkpt lat="48.55257" lon="2.00239">
        <ele>123.47</ele>
        <time>2016-02-07T10:10:47Z</time>
      </trkpt>
      <trkpt lat="48.55264" lon="2.00239">
        <ele>122.99</ele>
        <time>2016-02-07T10:10:52Z</time>
      </trkpt>
      <trkpt lat="48.55287" lon="2.00239">
        <ele>120.74</ele>
        <time>2016-02-07T10:11:12Z</time>
      </trkpt>
      <trkpt lat="48.55292" lon="2.00239">
        <ele>120.43</ele>
        <time>2016-02-07T10:11:16Z</time>
      </trkpt>
      <trkpt lat="48.55312" lon="2.00236">
        <ele>119.26</ele>
        <time>2016-02-07T10:11:30Z</time>
      </trkpt>
      <trkpt lat="48.55315" lon="2.00237">
        <ele>118.94</ele>
        <time>2016-02-07T10:11:32Z</time>
      </trkpt>
      <trkpt lat="48.55333" lon="2.00239">
        <ele>116.78</ele>
        <time>2016-02-07T10:11:48Z</time>
      </trkpt>
      <trkpt lat="48.55352" lon="2.00242">
        <ele>115.16</ele>
        <time>2016-02-07T10:12:04Z</time>
      </trkpt>
      <trkpt lat="48.55357" lon="2.00243">
        <ele>114.61</ele>
        <time>2016-02-07T10:12:08Z</time>
      </trkpt>
      <trkpt lat="48.55372" lon="2.00251">
        <ele>112.92</ele>
        <time>2016-02-07T10:12:22Z</time>
      </trkpt>
      <trkpt lat="48.55386" lon="2.00258">
        <ele>112.04</ele>
        <time>2016-02-07T10:12:36Z</time>
      </trkpt>
      <trkpt lat="48.55405" lon="2.00269">
        <ele>110.07</ele>
        <time>2016-02-07T10:12:53Z</time>
      </trkpt>
      <trkpt lat="48.55419" lon="2.00278">
        <ele>108.68</ele>
        <time>2016-02-07T10:13:07Z</time>
      </trkpt>
      <trkpt lat="48.5542" lon="2.00278">
        <ele>108.63</ele>
        <time>2016-02-07T10:13:08Z</time>
      </trkpt>
      <trkpt lat="48.55421" lon="2.00279">
        <ele>108.6</ele>
        <time>2016-02-07T10:13:09Z</time>
      </trkpt>
      <trkpt lat="48.55438" lon="2.00289">
        <ele>107.02</ele>
        <time>2016-02-07T10:13:25Z</time>
      </trkpt>
      <trkpt lat="48.55454" lon="2.00303">
        <ele>105.87</ele>
        <time>2016-02-07T10:13:39Z</time>
      </trkpt>
      <trkpt lat="48.55459" lon="2.00313">
        <ele>105.25</ele>
        <time>2016-02-07T10:13:47Z</time>
      </trkpt>
      <trkpt lat="48.55459" lon="2.00315">
        <ele>105.15</ele>
        <time>2016-02-07T10:13:48Z</time>
      </trkpt>
      <trkpt lat="48.55459" lon="2.00317">
        <ele>105.07</ele>
        <time>2016-02-07T10:13:49Z</time>
      </trkpt>
      <trkpt lat="48.55463" lon="2.00327">
        <ele>104.58</ele>
        <time>2016-02-07T10:13:59Z</time>
      </trkpt>
      <trkpt lat="48.5548" lon="2.00398">
        <ele>103.33</ele>
        <time>2016-02-07T10:17:14Z</time>
      </trkpt>
      <trkpt lat="48.55481" lon="2.004">
        <ele>103.3</ele>
        <time>2016-02-07T10:17:16Z</time>
      </trkpt>
      <trkpt lat="48.55483" lon="2.00402">
        <ele>103.25</ele>
        <time>2016-02-07T10:17:18Z</time>
      </trkpt>
      <trkpt lat="48.55492" lon="2.00416">
        <ele>103.02</ele>
        <time>2016-02-07T10:17:30Z</time>
      </trkpt>
      <trkpt lat="48.555" lon="2.00428">
        <ele>102.62</ele>
        <time>2016-02-07T10:17:41Z</time>
      </trkpt>
      <trkpt lat="48.5551" lon="2.00444">
        <ele>102.8</ele>
        <time>2016-02-07T10:17:55Z</time>
      </trkpt>
      <trkpt lat="48.55517" lon="2.00454">
        <ele>102.5</ele>
        <time>2016-02-07T10:18:04Z</time>
      </trkpt>
      <trkpt lat="48.55518" lon="2.00455">
        <ele>102.42</ele>
        <time>2016-02-07T10:18:05Z</time>
      </trkpt>
      <trkpt lat="48.5553" lon="2.00464">
        <ele>101.21</ele>
        <time>2016-02-07T10:18:18Z</time>
      </trkpt>
      <trkpt lat="48.55541" lon="2.00469">
        <ele>101.51</ele>
        <time>2016-02-07T10:18:28Z</time>
      </trkpt>
      <trkpt lat="48.55542" lon="2.00469">
        <ele>101.56</ele>
        <time>2016-02-07T10:18:29Z</time>
      </trkpt>
      <trkpt lat="48.55556" lon="2.00468">
        <ele>101.12</ele>
        <time>2016-02-07T10:18:45Z</time>
      </trkpt>
      <trkpt lat="48.55571" lon="2.00461">
        <ele>100.62</ele>
        <time>2016-02-07T10:19:00Z</time>
      </trkpt>
      <trkpt lat="48.55575" lon="2.00458">
        <ele>100.56</ele>
        <time>2016-02-07T10:19:04Z</time>
      </trkpt>
      <trkpt lat="48.55576" lon="2.00457">
        <ele>100.54</ele>
        <time>2016-02-07T10:19:05Z</time>
      </trkpt>
      <trkpt lat="48.55577" lon="2.00457">
        <ele>100.51</ele>
        <time>2016-02-07T10:19:06Z</time>
      </trkpt>
      <trkpt lat="48.55578" lon="2.00456">
        <ele>100.51</ele>
        <time>2016-02-07T10:19:07Z</time>
      </trkpt>
      <trkpt lat="48.55584" lon="2.00453">
        <ele>100.35</ele>
        <time>2016-02-07T10:19:13Z</time>
      </trkpt>
      <trkpt lat="48.55586" lon="2.00453">
        <ele>100.29</ele>
        <time>2016-02-07T10:19:15Z</time>
      </trkpt>
      <trkpt lat="48.55589" lon="2.00452">
        <ele>100.33</ele>
        <time>2016-02-07T10:19:17Z</time>
      </trkpt>
      <trkpt lat="48.5559" lon="2.00451">
        <ele>100.36</ele>
        <time>2016-02-07T10:19:18Z</time>
      </trkpt>
      <trkpt lat="48.55591" lon="2.00451">
        <ele>100.41</ele>
        <time>2016-02-07T10:19:19Z</time>
      </trkpt>
      <trkpt lat="48.55592" lon="2.0045">
        <ele>100.46</ele>
        <time>2016-02-07T10:19:20Z</time>
      </trkpt>
      <trkpt lat="48.55593" lon="2.0045">
        <ele>100.48</ele>
        <time>2016-02-07T10:19:21Z</time>
      </trkpt>
      <trkpt lat="48.55595" lon="2.0045">
        <ele>100.44</ele>
        <time>2016-02-07T10:19:22Z</time>
      </trkpt>
      <trkpt lat="48.55596" lon="2.00449">
        <ele>100.38</ele>
        <time>2016-02-07T10:19:23Z</time>
      </trkpt>
      <trkpt lat="48.55608" lon="2.00445">
        <ele>99.91</ele>
        <time>2016-02-07T10:19:35Z</time>
      </trkpt>
      <trkpt lat="48.55609" lon="2.00445">
        <ele>99.91</ele>
        <time>2016-02-07T10:19:36Z</time>
      </trkpt>
      <trkpt lat="48.5561" lon="2.00445">
        <ele>99.91</ele>
        <time>2016-02-07T10:19:37Z</time>
      </trkpt>
      <trkpt lat="48.55611" lon="2.00446">
        <ele>99.91</ele>
        <time>2016-02-07T10:19:38Z</time>
      </trkpt>
      <trkpt lat="48.55613" lon="2.00446">
        <ele>99.72</ele>
        <time>2016-02-07T10:19:43Z</time>
      </trkpt>
      <trkpt lat="48.55631" lon="2.00492">
        <ele>99.76</ele>
        <time>2016-02-07T10:20:33Z</time>
      </trkpt>
      <trkpt lat="48.55633" lon="2.00497">
        <ele>99.61</ele>
        <time>2016-02-07T10:20:37Z</time>
      </trkpt>
      <trkpt lat="48.55636" lon="2.00511">
        <ele>99.46</ele>
        <time>2016-02-07T10:20:46Z</time>
      </trkpt>
      <trkpt lat="48.55637" lon="2.00513">
        <ele>99.43</ele>
        <time>2016-02-07T10:20:47Z</time>
      </trkpt>
      <trkpt lat="48.55638" lon="2.00517">
        <ele>99.32</ele>
        <time>2016-02-07T10:20:50Z</time>
      </trkpt>
      <trkpt lat="48.55638" lon="2.00519">
        <ele>99.3</ele>
        <time>2016-02-07T10:20:51Z</time>
      </trkpt>
      <trkpt lat="48.55642" lon="2.00535">
        <ele>99.5</ele>
        <time>2016-02-07T10:21:02Z</time>
      </trkpt>
      <trkpt lat="48.55642" lon="2.00537">
        <ele>99.51</ele>
        <time>2016-02-07T10:21:03Z</time>
      </trkpt>
      <trkpt lat="48.55647" lon="2.00561">
        <ele>99.95</ele>
        <time>2016-02-07T10:21:20Z</time>
      </trkpt>
      <trkpt lat="48.55651" lon="2.00575">
        <ele>100.14</ele>
        <time>2016-02-07T10:21:29Z</time>
      </trkpt>
      <trkpt lat="48.55657" lon="2.00596">
        <ele>100.11</ele>
        <time>2016-02-07T10:21:42Z</time>
      </trkpt>
      <trkpt lat="48.55658" lon="2.00597">
        <ele>100.13</ele>
        <time>2016-02-07T10:21:43Z</time>
      </trkpt>
      <trkpt lat="48.55664" lon="2.00619">
        <ele>100.32</ele>
        <time>2016-02-07T10:21:56Z</time>
      </trkpt>
      <trkpt lat="48.55665" lon="2.00639">
        <ele>100.24</ele>
        <time>2016-02-07T10:22:07Z</time>
      </trkpt>
      <trkpt lat="48.5567" lon="2.00663">
        <ele>99.66</ele>
        <time>2016-02-07T10:22:21Z</time>
      </trkpt>
      <trkpt lat="48.55675" lon="2.00685">
        <ele>99.45</ele>
        <time>2016-02-07T10:22:34Z</time>
      </trkpt>
      <trkpt lat="48.55681" lon="2.00708">
        <ele>99.54</ele>
        <time>2016-02-07T10:22:48Z</time>
      </trkpt>
      <trkpt lat="48.55685" lon="2.00724">
        <ele>99.59</ele>
        <time>2016-02-07T10:22:59Z</time>
      </trkpt>
      <trkpt lat="48.55686" lon="2.00728">
        <ele>99.75</ele>
        <time>2016-02-07T10:23:01Z</time>
      </trkpt>
      <trkpt lat="48.5569" lon="2.00746">
        <ele>99.55</ele>
        <time>2016-02-07T10:23:12Z</time>
      </trkpt>
      <trkpt lat="48.5569" lon="2.00747">
        <ele>99.53</ele>
        <time>2016-02-07T10:23:13Z</time>
      </trkpt>
      <trkpt lat="48.55691" lon="2.00749">
        <ele>99.5</ele>
        <time>2016-02-07T10:23:14Z</time>
      </trkpt>
      <trkpt lat="48.55694" lon="2.00766">
        <ele>99.38</ele>
        <time>2016-02-07T10:23:26Z</time>
      </trkpt>
      <trkpt lat="48.55699" lon="2.00783">
        <ele>99.93</ele>
        <time>2016-02-07T10:23:37Z</time>
      </trkpt>
      <trkpt lat="48.55701" lon="2.00797">
        <ele>99.63</ele>
        <time>2016-02-07T10:23:45Z</time>
      </trkpt>
      <trkpt lat="48.55708" lon="2.00819">
        <ele>99.7</ele>
        <time>2016-02-07T10:23:59Z</time>
      </trkpt>
      <trkpt lat="48.55712" lon="2.00842">
        <ele>100.22</ele>
        <time>2016-02-07T10:24:12Z</time>
      </trkpt>
      <trkpt lat="48.55719" lon="2.00869">
        <ele>100.13</ele>
        <time>2016-02-07T10:24:28Z</time>
      </trkpt>
      <trkpt lat="48.55721" lon="2.00875">
        <ele>100.16</ele>
        <time>2016-02-07T10:24:32Z</time>
      </trkpt>
      <trkpt lat="48.55722" lon="2.00877">
        <ele>100.16</ele>
        <time>2016-02-07T10:24:33Z</time>
      </trkpt>
      <trkpt lat="48.55723" lon="2.00878">
        <ele>100.15</ele>
        <time>2016-02-07T10:24:34Z</time>
      </trkpt>
      <trkpt lat="48.55723" lon="2.0088">
        <ele>100.09</ele>
        <time>2016-02-07T10:24:35Z</time>
      </trkpt>
      <trkpt lat="48.55723" lon="2.00882">
        <ele>100.02</ele>
        <time>2016-02-07T10:24:36Z</time>
      </trkpt>
      <trkpt lat="48.55724" lon="2.00883">
        <ele>99.94</ele>
        <time>2016-02-07T10:24:37Z</time>
      </trkpt>
      <trkpt lat="48.55724" lon="2.00885">
        <ele>99.86</ele>
        <time>2016-02-07T10:24:38Z</time>
      </trkpt>
      <trkpt lat="48.55725" lon="2.00886">
        <ele>99.81</ele>
        <time>2016-02-07T10:24:39Z</time>
      </trkpt>
      <trkpt lat="48.55727" lon="2.00901">
        <ele>99.84</ele>
        <time>2016-02-07T10:24:49Z</time>
      </trkpt>
      <trkpt lat="48.55727" lon="2.00903">
        <ele>99.87</ele>
        <time>2016-02-07T10:24:50Z</time>
      </trkpt>
      <trkpt lat="48.55728" lon="2.00905">
        <ele>99.89</ele>
        <time>2016-02-07T10:24:51Z</time>
      </trkpt>
      <trkpt lat="48.55729" lon="2.00913">
        <ele>99.99</ele>
        <time>2016-02-07T10:24:56Z</time>
      </trkpt>
      <trkpt lat="48.55733" lon="2.00934">
        <ele>100.33</ele>
        <time>2016-02-07T10:25:11Z</time>
      </trkpt>
      <trkpt lat="48.55736" lon="2.00944">
        <ele>100.38</ele>
        <time>2016-02-07T10:25:18Z</time>
      </trkpt>
      <trkpt lat="48.55738" lon="2.00954">
        <ele>100.47</ele>
        <time>2016-02-07T10:25:25Z</time>
      </trkpt>
      <trkpt lat="48.55745" lon="2.00975">
        <ele>100.55</ele>
        <time>2016-02-07T10:25:37Z</time>
      </trkpt>
      <trkpt lat="48.55754" lon="2.00998">
        <ele>100.67</ele>
        <time>2016-02-07T10:25:53Z</time>
      </trkpt>
      <trkpt lat="48.55761" lon="2.01021">
        <ele>101.11</ele>
        <time>2016-02-07T10:26:06Z</time>
      </trkpt>
      <trkpt lat="48.55768" lon="2.01045">
        <ele>101.41</ele>
        <time>2016-02-07T10:26:21Z</time>
      </trkpt>
      <trkpt lat="48.5577" lon="2.01045">
        <ele>101.46</ele>
        <time>2016-02-07T10:26:24Z</time>
      </trkpt>
      <trkpt lat="48.55782" lon="2.01042">
        <ele>101.81</ele>
        <time>2016-02-07T10:26:42Z</time>
      </trkpt>
      <trkpt lat="48.55795" lon="2.0104">
        <ele>102.62</ele>
        <time>2016-02-07T10:27:00Z</time>
      </trkpt>
      <trkpt lat="48.55808" lon="2.01033">
        <ele>103.7</ele>
        <time>2016-02-07T10:27:17Z</time>
      </trkpt>
      <trkpt lat="48.55824" lon="2.01023">
        <ele>104.53</ele>
        <time>2016-02-07T10:27:35Z</time>
      </trkpt>
      <trkpt lat="48.55836" lon="2.01013">
        <ele>105.08</ele>
        <time>2016-02-07T10:27:50Z</time>
      </trkpt>
      <trkpt lat="48.55839" lon="2.01011">
        <ele>105.25</ele>
        <time>2016-02-07T10:27:53Z</time>
      </trkpt>
      <trkpt lat="48.55851" lon="2.01003">
        <ele>105.57</ele>
        <time>2016-02-07T10:28:07Z</time>
      </trkpt>
      <trkpt lat="48.55866" lon="2.00992">
        <ele>106.81</ele>
        <time>2016-02-07T10:28:24Z</time>
      </trkpt>
      <trkpt lat="48.55879" lon="2.00987">
        <ele>106.9</ele>
        <time>2016-02-07T10:28:38Z</time>
      </trkpt>
      <trkpt lat="48.55894" lon="2.0098">
        <ele>106.45</ele>
        <time>2016-02-07T10:28:53Z</time>
      </trkpt>
      <trkpt lat="48.55908" lon="2.00977">
        <ele>106.22</ele>
        <time>2016-02-07T10:29:07Z</time>
      </trkpt>
      <trkpt lat="48.55917" lon="2.00976">
        <ele>106.52</ele>
        <time>2016-02-07T10:29:15Z</time>
      </trkpt>
      <trkpt lat="48.55918" lon="2.00975">
        <ele>106.57</ele>
        <time>2016-02-07T10:29:16Z</time>
      </trkpt>
      <trkpt lat="48.55928" lon="2.00973">
        <ele>106.9</ele>
        <time>2016-02-07T10:29:26Z</time>
      </trkpt>
      <trkpt lat="48.55931" lon="2.00972">
        <ele>107.05</ele>
        <time>2016-02-07T10:29:29Z</time>
      </trkpt>
      <trkpt lat="48.55945" lon="2.0097">
        <ele>107.07</ele>
        <time>2016-02-07T10:29:42Z</time>
      </trkpt>
      <trkpt lat="48.55958" lon="2.00965">
        <ele>107.17</ele>
        <time>2016-02-07T10:29:55Z</time>
      </trkpt>
      <trkpt lat="48.55972" lon="2.00961">
        <ele>107.76</ele>
        <time>2016-02-07T10:30:09Z</time>
      </trkpt>
      <trkpt lat="48.55988" lon="2.00958">
        <ele>108.33</ele>
        <time>2016-02-07T10:30:23Z</time>
      </trkpt>
      <trkpt lat="48.55998" lon="2.00958">
        <ele>108.76</ele>
        <time>2016-02-07T10:30:33Z</time>
      </trkpt>
      <trkpt lat="48.56" lon="2.00958">
        <ele>108.86</ele>
        <time>2016-02-07T10:30:34Z</time>
      </trkpt>
      <trkpt lat="48.56014" lon="2.00958">
        <ele>109.45</ele>
        <time>2016-02-07T10:30:47Z</time>
      </trkpt>
      <trkpt lat="48.56025" lon="2.00959">
        <ele>110.18</ele>
        <time>2016-02-07T10:31:00Z</time>
      </trkpt>
      <trkpt lat="48.5603" lon="2.00957">
        <ele>110.26</ele>
        <time>2016-02-07T10:31:05Z</time>
      </trkpt>
      <trkpt lat="48.56031" lon="2.00957">
        <ele>110.26</ele>
        <time>2016-02-07T10:31:06Z</time>
      </trkpt>
      <trkpt lat="48.56035" lon="2.00955">
        <ele>110.3</ele>
        <time>2016-02-07T10:31:10Z</time>
      </trkpt>
      <trkpt lat="48.56036" lon="2.00955">
        <ele>110.33</ele>
        <time>2016-02-07T10:31:11Z</time>
      </trkpt>
      <trkpt lat="48.56038" lon="2.00955">
        <ele>110.42</ele>
        <time>2016-02-07T10:31:13Z</time>
      </trkpt>
      <trkpt lat="48.56039" lon="2.00954">
        <ele>110.51</ele>
        <time>2016-02-07T10:31:14Z</time>
      </trkpt>
      <trkpt lat="48.5604" lon="2.00953">
        <ele>110.54</ele>
        <time>2016-02-07T10:31:15Z</time>
      </trkpt>
      <trkpt lat="48.56041" lon="2.00953">
        <ele>110.55</ele>
        <time>2016-02-07T10:31:16Z</time>
      </trkpt>
      <trkpt lat="48.56043" lon="2.00952">
        <ele>110.53</ele>
        <time>2016-02-07T10:31:18Z</time>
      </trkpt>
      <trkpt lat="48.56045" lon="2.00952">
        <ele>110.44</ele>
        <time>2016-02-07T10:31:20Z</time>
      </trkpt>
      <trkpt lat="48.56055" lon="2.0095">
        <ele>110.41</ele>
        <time>2016-02-07T10:31:30Z</time>
      </trkpt>
      <trkpt lat="48.56073" lon="2.00944">
        <ele>110.82</ele>
        <time>2016-02-07T10:31:48Z</time>
      </trkpt>
      <trkpt lat="48.56086" lon="2.00939">
        <ele>111.25</ele>
        <time>2016-02-07T10:32:01Z</time>
      </trkpt>
      <trkpt lat="48.56104" lon="2.00929">
        <ele>112.23</ele>
        <time>2016-02-07T10:32:19Z</time>
      </trkpt>
      <trkpt lat="48.56116" lon="2.00925">
        <ele>112.21</ele>
        <time>2016-02-07T10:32:29Z</time>
      </trkpt>
      <trkpt lat="48.56132" lon="2.00918">
        <ele>112.85</ele>
        <time>2016-02-07T10:32:43Z</time>
      </trkpt>
      <trkpt lat="48.56133" lon="2.00917">
        <ele>112.88</ele>
        <time>2016-02-07T10:32:44Z</time>
      </trkpt>
      <trkpt lat="48.56134" lon="2.00917">
        <ele>112.9</ele>
        <time>2016-02-07T10:32:45Z</time>
      </trkpt>
      <trkpt lat="48.56135" lon="2.00916">
        <ele>112.9</ele>
        <time>2016-02-07T10:32:46Z</time>
      </trkpt>
      <trkpt lat="48.56136" lon="2.00915">
        <ele>112.89</ele>
        <time>2016-02-07T10:32:47Z</time>
      </trkpt>
      <trkpt lat="48.56152" lon="2.00907">
        <ele>113.42</ele>
        <time>2016-02-07T10:33:02Z</time>
      </trkpt>
      <trkpt lat="48.56153" lon="2.00907">
        <ele>113.5</ele>
        <time>2016-02-07T10:33:03Z</time>
      </trkpt>
      <trkpt lat="48.56168" lon="2.00904">
        <ele>114.08</ele>
        <time>2016-02-07T10:33:18Z</time>
      </trkpt>
      <trkpt lat="48.56183" lon="2.00904">
        <ele>114.98</ele>
        <time>2016-02-07T10:33:31Z</time>
      </trkpt>
      <trkpt lat="48.56196" lon="2.00904">
        <ele>115.88</ele>
        <time>2016-02-07T10:33:45Z</time>
      </trkpt>
      <trkpt lat="48.56197" lon="2.00904">
        <ele>115.99</ele>
        <time>2016-02-07T10:33:46Z</time>
      </trkpt>
      <trkpt lat="48.56223" lon="2.00895">
        <ele>116.19</ele>
        <time>2016-02-07T10:34:23Z</time>
      </trkpt>
      <trkpt lat="48.56238" lon="2.00889">
        <ele>117.97</ele>
        <time>2016-02-07T10:34:45Z</time>
      </trkpt>
      <trkpt lat="48.56244" lon="2.0089">
        <ele>119.81</ele>
        <time>2016-02-07T10:34:53Z</time>
      </trkpt>
      <trkpt lat="48.5628" lon="2.00896">
        <ele>123.04</ele>
        <time>2016-02-07T10:35:36Z</time>
      </trkpt>
      <trkpt lat="48.56298" lon="2.00903">
        <ele>123.97</ele>
        <time>2016-02-07T10:35:57Z</time>
      </trkpt>
      <trkpt lat="48.56301" lon="2.00903">
        <ele>124.02</ele>
        <time>2016-02-07T10:36:00Z</time>
      </trkpt>
      <trkpt lat="48.5636" lon="2.00912">
        <ele>119.33</ele>
        <time>2016-02-07T10:36:59Z</time>
      </trkpt>
      <trkpt lat="48.56384" lon="2.00921">
        <ele>118.31</ele>
        <time>2016-02-07T10:37:21Z</time>
      </trkpt>
      <trkpt lat="48.56407" lon="2.00928">
        <ele>117.18</ele>
        <time>2016-02-07T10:37:41Z</time>
      </trkpt>
      <trkpt lat="48.5643" lon="2.0094">
        <ele>115.96</ele>
        <time>2016-02-07T10:38:06Z</time>
      </trkpt>
      <trkpt lat="48.56435" lon="2.00942">
        <ele>115.64</ele>
        <time>2016-02-07T10:38:14Z</time>
      </trkpt>
      <trkpt lat="48.56468" lon="2.00963">
        <ele>114.28</ele>
        <time>2016-02-07T10:41:05Z</time>
      </trkpt>
      <trkpt lat="48.56484" lon="2.00973">
        <ele>113.48</ele>
        <time>2016-02-07T10:41:21Z</time>
      </trkpt>
      <trkpt lat="48.56499" lon="2.00985">
        <ele>113.55</ele>
        <time>2016-02-07T10:41:36Z</time>
      </trkpt>
      <trkpt lat="48.56512" lon="2.00993">
        <ele>113.37</ele>
        <time>2016-02-07T10:41:48Z</time>
      </trkpt>
      <trkpt lat="48.5653" lon="2.01005">
        <ele>112.47</ele>
        <time>2016-02-07T10:42:04Z</time>
      </trkpt>
      <trkpt lat="48.56547" lon="2.01016">
        <ele>111.41</ele>
        <time>2016-02-07T10:42:20Z</time>
      </trkpt>
      <trkpt lat="48.56563" lon="2.01028">
        <ele>111.02</ele>
        <time>2016-02-07T10:42:36Z</time>
      </trkpt>
      <trkpt lat="48.5658" lon="2.01039">
        <ele>111.1</ele>
        <time>2016-02-07T10:42:52Z</time>
      </trkpt>
      <trkpt lat="48.56596" lon="2.0105">
        <ele>111.06</ele>
        <time>2016-02-07T10:43:07Z</time>
      </trkpt>
      <trkpt lat="48.56613" lon="2.0106">
        <ele>110.66</ele>
        <time>2016-02-07T10:43:23Z</time>
      </trkpt>
      <trkpt lat="48.56618" lon="2.01063">
        <ele>110.55</ele>
        <time>2016-02-07T10:43:28Z</time>
      </trkpt>
      <trkpt lat="48.5662" lon="2.01064">
        <ele>110.56</ele>
        <time>2016-02-07T10:43:29Z</time>
      </trkpt>
      <trkpt lat="48.56633" lon="2.01072">
        <ele>109.98</ele>
        <time>2016-02-07T10:43:41Z</time>
      </trkpt>
      <trkpt lat="48.56649" lon="2.01081">
        <ele>109.16</ele>
        <time>2016-02-07T10:43:56Z</time>
      </trkpt>
      <trkpt lat="48.56665" lon="2.0109">
        <ele>108.5</ele>
        <time>2016-02-07T10:44:11Z</time>
      </trkpt>
      <trkpt lat="48.56676" lon="2.01095">
        <ele>108.73</ele>
        <time>2016-02-07T10:44:21Z</time>
      </trkpt>
      <trkpt lat="48.56678" lon="2.01095">
        <ele>108.77</ele>
        <time>2016-02-07T10:44:22Z</time>
      </trkpt>
      <trkpt lat="48.56679" lon="2.01095">
        <ele>108.8</ele>
        <time>2016-02-07T10:44:23Z</time>
      </trkpt>
      <trkpt lat="48.5668" lon="2.01095">
        <ele>108.81</ele>
        <time>2016-02-07T10:44:24Z</time>
      </trkpt>
      <trkpt lat="48.56695" lon="2.01102">
        <ele>109.02</ele>
        <time>2016-02-07T10:44:39Z</time>
      </trkpt>
      <trkpt lat="48.56699" lon="2.01104">
        <ele>108.97</ele>
        <time>2016-02-07T10:44:43Z</time>
      </trkpt>
      <trkpt lat="48.56713" lon="2.01113">
        <ele>108.07</ele>
        <time>2016-02-07T10:44:57Z</time>
      </trkpt>
      <trkpt lat="48.56718" lon="2.01123">
        <ele>108.1</ele>
        <time>2016-02-07T10:45:11Z</time>
      </trkpt>
      <trkpt lat="48.56718" lon="2.01186">
        <ele>110.49</ele>
        <time>2016-02-07T10:46:38Z</time>
      </trkpt>
      <trkpt lat="48.56719" lon="2.01202">
        <ele>110.4</ele>
        <time>2016-02-07T10:46:50Z</time>
      </trkpt>
      <trkpt lat="48.5672" lon="2.01208">
        <ele>110.27</ele>
        <time>2016-02-07T10:46:56Z</time>
      </trkpt>
      <trkpt lat="48.56721" lon="2.01217">
        <ele>110.68</ele>
        <time>2016-02-07T10:47:01Z</time>
      </trkpt>
      <trkpt lat="48.56722" lon="2.01233">
        <ele>110.19</ele>
        <time>2016-02-07T10:47:13Z</time>
      </trkpt>
      <trkpt lat="48.56723" lon="2.01238">
        <ele>110.01</ele>
        <time>2016-02-07T10:47:17Z</time>
      </trkpt>
      <trkpt lat="48.56723" lon="2.01241">
        <ele>110.01</ele>
        <time>2016-02-07T10:47:19Z</time>
      </trkpt>
      <trkpt lat="48.56723" lon="2.01262">
        <ele>110.46</ele>
        <time>2016-02-07T10:47:33Z</time>
      </trkpt>
      <trkpt lat="48.56723" lon="2.01268">
        <ele>110.71</ele>
        <time>2016-02-07T10:47:37Z</time>
      </trkpt>
      <trkpt lat="48.56721" lon="2.0128">
        <ele>111.22</ele>
        <time>2016-02-07T10:47:45Z</time>
      </trkpt>
      <trkpt lat="48.56721" lon="2.01288">
        <ele>111.39</ele>
        <time>2016-02-07T10:47:50Z</time>
      </trkpt>
      <trkpt lat="48.5672" lon="2.01294">
        <ele>111.48</ele>
        <time>2016-02-07T10:47:54Z</time>
      </trkpt>
      <trkpt lat="48.5672" lon="2.01296">
        <ele>111.51</ele>
        <time>2016-02-07T10:47:55Z</time>
      </trkpt>
      <trkpt lat="48.56719" lon="2.01298">
        <ele>111.52</ele>
        <time>2016-02-07T10:47:56Z</time>
      </trkpt>
      <trkpt lat="48.56716" lon="2.01314">
        <ele>111.5</ele>
        <time>2016-02-07T10:48:07Z</time>
      </trkpt>
      <trkpt lat="48.56715" lon="2.0132">
        <ele>111.6</ele>
        <time>2016-02-07T10:48:11Z</time>
      </trkpt>
      <trkpt lat="48.56714" lon="2.01335">
        <ele>112.29</ele>
        <time>2016-02-07T10:48:22Z</time>
      </trkpt>
      <trkpt lat="48.56713" lon="2.0135">
        <ele>112.06</ele>
        <time>2016-02-07T10:48:33Z</time>
      </trkpt>
      <trkpt lat="48.56713" lon="2.01358">
        <ele>111.9</ele>
        <time>2016-02-07T10:48:38Z</time>
      </trkpt>
      <trkpt lat="48.56715" lon="2.0138">
        <ele>112.01</ele>
        <time>2016-02-07T10:48:51Z</time>
      </trkpt>
      <trkpt lat="48.56716" lon="2.01382">
        <ele>112.21</ele>
        <time>2016-02-07T10:48:53Z</time>
      </trkpt>
      <trkpt lat="48.56718" lon="2.01388">
        <ele>112.49</ele>
        <time>2016-02-07T10:48:58Z</time>
      </trkpt>
      <trkpt lat="48.56718" lon="2.0139">
        <ele>112.5</ele>
        <time>2016-02-07T10:48:59Z</time>
      </trkpt>
      <trkpt lat="48.56718" lon="2.01392">
        <ele>112.5</ele>
        <time>2016-02-07T10:49:00Z</time>
      </trkpt>
      <trkpt lat="48.56719" lon="2.01398">
        <ele>112.4</ele>
        <time>2016-02-07T10:49:04Z</time>
      </trkpt>
      <trkpt lat="48.56719" lon="2.01402">
        <ele>112.16</ele>
        <time>2016-02-07T10:49:07Z</time>
      </trkpt>
      <trkpt lat="48.56721" lon="2.01418">
        <ele>112.05</ele>
        <time>2016-02-07T10:49:19Z</time>
      </trkpt>
      <trkpt lat="48.5672" lon="2.01437">
        <ele>113.01</ele>
        <time>2016-02-07T10:49:37Z</time>
      </trkpt>
      <trkpt lat="48.5672" lon="2.01448">
        <ele>113.2</ele>
        <time>2016-02-07T10:49:44Z</time>
      </trkpt>
      <trkpt lat="48.56721" lon="2.0145">
        <ele>113.21</ele>
        <time>2016-02-07T10:49:45Z</time>
      </trkpt>
      <trkpt lat="48.56721" lon="2.01477">
        <ele>112.96</ele>
        <time>2016-02-07T10:50:03Z</time>
      </trkpt>
      <trkpt lat="48.56716" lon="2.01504">
        <ele>112.59</ele>
        <time>2016-02-07T10:50:17Z</time>
      </trkpt>
      <trkpt lat="48.56711" lon="2.01533">
        <ele>111.77</ele>
        <time>2016-02-07T10:50:32Z</time>
      </trkpt>
      <trkpt lat="48.56706" lon="2.01561">
        <ele>110.6</ele>
        <time>2016-02-07T10:50:48Z</time>
      </trkpt>
      <trkpt lat="48.56701" lon="2.0159">
        <ele>109.22</ele>
        <time>2016-02-07T10:51:06Z</time>
      </trkpt>
      <trkpt lat="48.56695" lon="2.0162">
        <ele>108.03</ele>
        <time>2016-02-07T10:51:24Z</time>
      </trkpt>
      <trkpt lat="48.56691" lon="2.01653">
        <ele>107.16</ele>
        <time>2016-02-07T10:51:44Z</time>
      </trkpt>
      <trkpt lat="48.56685" lon="2.01681">
        <ele>106.4</ele>
        <time>2016-02-07T10:52:02Z</time>
      </trkpt>
      <trkpt lat="48.56684" lon="2.01689">
        <ele>106.09</ele>
        <time>2016-02-07T10:52:07Z</time>
      </trkpt>
      <trkpt lat="48.56684" lon="2.01691">
        <ele>106.02</ele>
        <time>2016-02-07T10:52:08Z</time>
      </trkpt>
      <trkpt lat="48.56679" lon="2.01714">
        <ele>104.83</ele>
        <time>2016-02-07T10:52:23Z</time>
      </trkpt>
      <trkpt lat="48.56674" lon="2.01736">
        <ele>104.09</ele>
        <time>2016-02-07T10:52:37Z</time>
      </trkpt>
      <trkpt lat="48.56671" lon="2.0175">
        <ele>104.17</ele>
        <time>2016-02-07T10:52:45Z</time>
      </trkpt>
      <trkpt lat="48.5667" lon="2.01752">
        <ele>104.11</ele>
        <time>2016-02-07T10:52:46Z</time>
      </trkpt>
      <trkpt lat="48.56663" lon="2.01778">
        <ele>103.02</ele>
        <time>2016-02-07T10:53:02Z</time>
      </trkpt>
      <trkpt lat="48.56658" lon="2.01799">
        <ele>102.9</ele>
        <time>2016-02-07T10:53:15Z</time>
      </trkpt>
      <trkpt lat="48.56651" lon="2.01827">
        <ele>103.01</ele>
        <time>2016-02-07T10:53:32Z</time>
      </trkpt>
      <trkpt lat="48.56643" lon="2.01853">
        <ele>103.17</ele>
        <time>2016-02-07T10:53:49Z</time>
      </trkpt>
      <trkpt lat="48.56636" lon="2.01877">
        <ele>102.52</ele>
        <time>2016-02-07T10:54:04Z</time>
      </trkpt>
      <trkpt lat="48.5663" lon="2.01901">
        <ele>102.7</ele>
        <time>2016-02-07T10:54:18Z</time>
      </trkpt>
      <trkpt lat="48.56623" lon="2.01926">
        <ele>102.84</ele>
        <time>2016-02-07T10:54:33Z</time>
      </trkpt>
      <trkpt lat="48.56615" lon="2.01945">
        <ele>102.57</ele>
        <time>2016-02-07T10:54:46Z</time>
      </trkpt>
      <trkpt lat="48.56608" lon="2.01968">
        <ele>102.17</ele>
        <time>2016-02-07T10:55:00Z</time>
      </trkpt>
      <trkpt lat="48.56602" lon="2.01987">
        <ele>101.95</ele>
        <time>2016-02-07T10:55:12Z</time>
      </trkpt>
      <trkpt lat="48.56594" lon="2.02005">
        <ele>102.13</ele>
        <time>2016-02-07T10:55:24Z</time>
      </trkpt>
      <trkpt lat="48.56586" lon="2.02031">
        <ele>101.67</ele>
        <time>2016-02-07T10:55:40Z</time>
      </trkpt>
      <trkpt lat="48.5658" lon="2.02057">
        <ele>100.93</ele>
        <time>2016-02-07T10:55:55Z</time>
      </trkpt>
      <trkpt lat="48.56575" lon="2.02078">
        <ele>100.23</ele>
        <time>2016-02-07T10:56:08Z</time>
      </trkpt>
      <trkpt lat="48.56571" lon="2.02098">
        <ele>99.59</ele>
        <time>2016-02-07T10:56:20Z</time>
      </trkpt>
      <trkpt lat="48.56566" lon="2.0212">
        <ele>99.14</ele>
        <time>2016-02-07T10:56:34Z</time>
      </trkpt>
      <trkpt lat="48.5656" lon="2.0214">
        <ele>99.3</ele>
        <time>2016-02-07T10:56:48Z</time>
      </trkpt>
      <trkpt lat="48.56559" lon="2.02165">
        <ele>98.64</ele>
        <time>2016-02-07T10:57:04Z</time>
      </trkpt>
      <trkpt lat="48.56563" lon="2.02187">
        <ele>98.09</ele>
        <time>2016-02-07T10:57:16Z</time>
      </trkpt>
      <trkpt lat="48.56565" lon="2.02195">
        <ele>98.02</ele>
        <time>2016-02-07T10:57:20Z</time>
      </trkpt>
      <trkpt lat="48.56566" lon="2.02197">
        <ele>97.97</ele>
        <time>2016-02-07T10:57:21Z</time>
      </trkpt>
      <trkpt lat="48.56566" lon="2.02199">
        <ele>97.88</ele>
        <time>2016-02-07T10:57:22Z</time>
      </trkpt>
      <trkpt lat="48.56566" lon="2.02201">
        <ele>97.86</ele>
        <time>2016-02-07T10:57:23Z</time>
      </trkpt>
      <trkpt lat="48.56567" lon="2.02205">
        <ele>97.73</ele>
        <time>2016-02-07T10:57:26Z</time>
      </trkpt>
      <trkpt lat="48.56567" lon="2.02207">
        <ele>97.7</ele>
        <time>2016-02-07T10:57:27Z</time>
      </trkpt>
      <trkpt lat="48.56574" lon="2.02227">
        <ele>96.95</ele>
        <time>2016-02-07T10:57:41Z</time>
      </trkpt>
      <trkpt lat="48.56576" lon="2.02231">
        <ele>96.69</ele>
        <time>2016-02-07T10:57:44Z</time>
      </trkpt>
      <trkpt lat="48.56577" lon="2.02232">
        <ele>96.56</ele>
        <time>2016-02-07T10:57:45Z</time>
      </trkpt>
      <trkpt lat="48.5658" lon="2.0224">
        <ele>96</ele>
        <time>2016-02-07T10:57:51Z</time>
      </trkpt>
      <trkpt lat="48.56581" lon="2.02241">
        <ele>95.95</ele>
        <time>2016-02-07T10:57:52Z</time>
      </trkpt>
      <trkpt lat="48.5659" lon="2.02261">
        <ele>95.58</ele>
        <time>2016-02-07T10:58:06Z</time>
      </trkpt>
      <trkpt lat="48.566" lon="2.02284">
        <ele>94.74</ele>
        <time>2016-02-07T10:58:23Z</time>
      </trkpt>
      <trkpt lat="48.56608" lon="2.02306">
        <ele>93.6</ele>
        <time>2016-02-07T10:58:38Z</time>
      </trkpt>
      <trkpt lat="48.56616" lon="2.02331">
        <ele>93.35</ele>
        <time>2016-02-07T10:58:53Z</time>
      </trkpt>
      <trkpt lat="48.56617" lon="2.02333">
        <ele>93.31</ele>
        <time>2016-02-07T10:58:54Z</time>
      </trkpt>
      <trkpt lat="48.56617" lon="2.02335">
        <ele>93.26</ele>
        <time>2016-02-07T10:58:55Z</time>
      </trkpt>
      <trkpt lat="48.56624" lon="2.02365">
        <ele>92.25</ele>
        <time>2016-02-07T10:59:12Z</time>
      </trkpt>
      <trkpt lat="48.56628" lon="2.02395">
        <ele>91.24</ele>
        <time>2016-02-07T10:59:28Z</time>
      </trkpt>
      <trkpt lat="48.56629" lon="2.02423">
        <ele>90.99</ele>
        <time>2016-02-07T10:59:44Z</time>
      </trkpt>
      <trkpt lat="48.56633" lon="2.02449">
        <ele>90.73</ele>
        <time>2016-02-07T10:59:59Z</time>
      </trkpt>
      <trkpt lat="48.56637" lon="2.02475">
        <ele>90.54</ele>
        <time>2016-02-07T11:00:15Z</time>
      </trkpt>
      <trkpt lat="48.56641" lon="2.02492">
        <ele>90.34</ele>
        <time>2016-02-07T11:00:28Z</time>
      </trkpt>
      <trkpt lat="48.56642" lon="2.02493">
        <ele>90.32</ele>
        <time>2016-02-07T11:00:29Z</time>
      </trkpt>
      <trkpt lat="48.56654" lon="2.02508">
        <ele>89.66</ele>
        <time>2016-02-07T11:00:43Z</time>
      </trkpt>
      <trkpt lat="48.5667" lon="2.02522">
        <ele>88.66</ele>
        <time>2016-02-07T11:00:58Z</time>
      </trkpt>
      <trkpt lat="48.56688" lon="2.02535">
        <ele>87.98</ele>
        <time>2016-02-07T11:01:14Z</time>
      </trkpt>
      <trkpt lat="48.56705" lon="2.0255">
        <ele>87.26</ele>
        <time>2016-02-07T11:01:30Z</time>
      </trkpt>
      <trkpt lat="48.5672" lon="2.02563">
        <ele>86.08</ele>
        <time>2016-02-07T11:01:46Z</time>
      </trkpt>
      <trkpt lat="48.56737" lon="2.02575">
        <ele>86.22</ele>
        <time>2016-02-07T11:02:01Z</time>
      </trkpt>
      <trkpt lat="48.56754" lon="2.02589">
        <ele>85.44</ele>
        <time>2016-02-07T11:02:17Z</time>
      </trkpt>
      <trkpt lat="48.56756" lon="2.0259">
        <ele>85.35</ele>
        <time>2016-02-07T11:02:19Z</time>
      </trkpt>
      <trkpt lat="48.56757" lon="2.02591">
        <ele>85.32</ele>
        <time>2016-02-07T11:02:20Z</time>
      </trkpt>
      <trkpt lat="48.56757" lon="2.02592">
        <ele>85.26</ele>
        <time>2016-02-07T11:02:21Z</time>
      </trkpt>
      <trkpt lat="48.56768" lon="2.02599">
        <ele>84.79</ele>
        <time>2016-02-07T11:02:33Z</time>
      </trkpt>
      <trkpt lat="48.56769" lon="2.026">
        <ele>84.76</ele>
        <time>2016-02-07T11:02:34Z</time>
      </trkpt>
      <trkpt lat="48.5677" lon="2.02601">
        <ele>84.73</ele>
        <time>2016-02-07T11:02:35Z</time>
      </trkpt>
      <trkpt lat="48.56783" lon="2.02616">
        <ele>84.26</ele>
        <time>2016-02-07T11:02:50Z</time>
      </trkpt>
      <trkpt lat="48.56787" lon="2.02621">
        <ele>83.68</ele>
        <time>2016-02-07T11:02:57Z</time>
      </trkpt>
      <trkpt lat="48.56836" lon="2.02655">
        <ele>82.53</ele>
        <time>2016-02-07T11:04:09Z</time>
      </trkpt>
      <trkpt lat="48.56848" lon="2.02671">
        <ele>82.33</ele>
        <time>2016-02-07T11:04:25Z</time>
      </trkpt>
      <trkpt lat="48.5686" lon="2.02695">
        <ele>81.73</ele>
        <time>2016-02-07T11:04:43Z</time>
      </trkpt>
      <trkpt lat="48.56869" lon="2.02714">
        <ele>81.35</ele>
        <time>2016-02-07T11:04:59Z</time>
      </trkpt>
      <trkpt lat="48.56881" lon="2.02739">
        <ele>80.37</ele>
        <time>2016-02-07T11:05:17Z</time>
      </trkpt>
      <trkpt lat="48.56893" lon="2.02758">
        <ele>79.92</ele>
        <time>2016-02-07T11:05:32Z</time>
      </trkpt>
      <trkpt lat="48.56904" lon="2.02779">
        <ele>78.8</ele>
        <time>2016-02-07T11:05:49Z</time>
      </trkpt>
      <trkpt lat="48.5692" lon="2.02787">
        <ele>77.95</ele>
        <time>2016-02-07T11:06:04Z</time>
      </trkpt>
      <trkpt lat="48.56933" lon="2.02792">
        <ele>77.37</ele>
        <time>2016-02-07T11:06:16Z</time>
      </trkpt>
      <trkpt lat="48.56946" lon="2.02795">
        <ele>76.95</ele>
        <time>2016-02-07T11:06:29Z</time>
      </trkpt>
      <trkpt lat="48.56963" lon="2.02799">
        <ele>76.95</ele>
        <time>2016-02-07T11:06:46Z</time>
      </trkpt>
      <trkpt lat="48.56975" lon="2.028">
        <ele>76.26</ele>
        <time>2016-02-07T11:06:57Z</time>
      </trkpt>
      <trkpt lat="48.56995" lon="2.02804">
        <ele>74.93</ele>
        <time>2016-02-07T11:07:14Z</time>
      </trkpt>
      <trkpt lat="48.57011" lon="2.02813">
        <ele>73.99</ele>
        <time>2016-02-07T11:07:30Z</time>
      </trkpt>
      <trkpt lat="48.57012" lon="2.02815">
        <ele>73.8</ele>
        <time>2016-02-07T11:07:35Z</time>
      </trkpt>
      <trkpt lat="48.57019" lon="2.02819">
        <ele>74.02</ele>
        <time>2016-02-07T11:07:52Z</time>
      </trkpt>
      <trkpt lat="48.57021" lon="2.02819">
        <ele>73.96</ele>
        <time>2016-02-07T11:07:54Z</time>
      </trkpt>
      <trkpt lat="48.57035" lon="2.02828">
        <ele>73.98</ele>
        <time>2016-02-07T11:08:10Z</time>
      </trkpt>
      <trkpt lat="48.5705" lon="2.02837">
        <ele>72.95</ele>
        <time>2016-02-07T11:08:26Z</time>
      </trkpt>
      <trkpt lat="48.57064" lon="2.02845">
        <ele>72.1</ele>
        <time>2016-02-07T11:08:40Z</time>
      </trkpt>
      <trkpt lat="48.57066" lon="2.02846">
        <ele>71.9</ele>
        <time>2016-02-07T11:08:42Z</time>
      </trkpt>
      <trkpt lat="48.57083" lon="2.02854">
        <ele>70.21</ele>
        <time>2016-02-07T11:08:59Z</time>
      </trkpt>
      <trkpt lat="48.57091" lon="2.02857">
        <ele>69.69</ele>
        <time>2016-02-07T11:09:06Z</time>
      </trkpt>
      <trkpt lat="48.57102" lon="2.02861">
        <ele>69.35</ele>
        <time>2016-02-07T11:09:17Z</time>
      </trkpt>
      <trkpt lat="48.57115" lon="2.02871">
        <ele>69.1</ele>
        <time>2016-02-07T11:09:30Z</time>
      </trkpt>
      <trkpt lat="48.57132" lon="2.02881">
        <ele>68.52</ele>
        <time>2016-02-07T11:09:46Z</time>
      </trkpt>
      <trkpt lat="48.57149" lon="2.02891">
        <ele>67.82</ele>
        <time>2016-02-07T11:10:02Z</time>
      </trkpt>
      <trkpt lat="48.57164" lon="2.02896">
        <ele>67.67</ele>
        <time>2016-02-07T11:10:16Z</time>
      </trkpt>
      <trkpt lat="48.57166" lon="2.02897">
        <ele>67.65</ele>
        <time>2016-02-07T11:10:18Z</time>
      </trkpt>
      <trkpt lat="48.57178" lon="2.029">
        <ele>67.43</ele>
        <time>2016-02-07T11:10:29Z</time>
      </trkpt>
      <trkpt lat="48.57196" lon="2.02911">
        <ele>66.83</ele>
        <time>2016-02-07T11:10:54Z</time>
      </trkpt>
      <trkpt lat="48.57196" lon="2.02911">
        <ele>66.87</ele>
        <time>2016-02-07T11:10:55Z</time>
      </trkpt>
      <trkpt lat="48.57276" lon="2.02945">
        <ele>67.12</ele>
        <time>2016-02-07T11:12:23Z</time>
      </trkpt>
      <trkpt lat="48.57291" lon="2.0295">
        <ele>67.35</ele>
        <time>2016-02-07T11:12:44Z</time>
      </trkpt>
      <trkpt lat="48.57308" lon="2.02961">
        <ele>66.59</ele>
        <time>2016-02-07T11:13:05Z</time>
      </trkpt>
      <trkpt lat="48.57334" lon="2.0297">
        <ele>67.61</ele>
        <time>2016-02-07T11:13:30Z</time>
      </trkpt>
      <trkpt lat="48.5735" lon="2.02981">
        <ele>68.28</ele>
        <time>2016-02-07T11:13:47Z</time>
      </trkpt>
      <trkpt lat="48.57358" lon="2.02988">
        <ele>68.72</ele>
        <time>2016-02-07T11:13:58Z</time>
      </trkpt>
      <trkpt lat="48.57358" lon="2.02988">
        <ele>68.92</ele>
        <time>2016-02-07T11:14:02Z</time>
      </trkpt>
      <trkpt lat="48.57356" lon="2.03006">
        <ele>69.06</ele>
        <time>2016-02-07T11:14:41Z</time>
      </trkpt>
      <trkpt lat="48.57354" lon="2.03008">
        <ele>69.14</ele>
        <time>2016-02-07T11:14:44Z</time>
      </trkpt>
      <trkpt lat="48.57347" lon="2.03025">
        <ele>69.25</ele>
        <time>2016-02-07T11:14:59Z</time>
      </trkpt>
      <trkpt lat="48.57341" lon="2.03039">
        <ele>69.6</ele>
        <time>2016-02-07T11:15:10Z</time>
      </trkpt>
      <trkpt lat="48.57336" lon="2.03051">
        <ele>69.95</ele>
        <time>2016-02-07T11:15:19Z</time>
      </trkpt>
      <trkpt lat="48.57326" lon="2.03069">
        <ele>71.35</ele>
        <time>2016-02-07T11:15:35Z</time>
      </trkpt>
      <trkpt lat="48.57316" lon="2.03089">
        <ele>71.73</ele>
        <time>2016-02-07T11:15:51Z</time>
      </trkpt>
      <trkpt lat="48.57314" lon="2.03092">
        <ele>71.73</ele>
        <time>2016-02-07T11:15:53Z</time>
      </trkpt>
      <trkpt lat="48.57303" lon="2.03109">
        <ele>72.38</ele>
        <time>2016-02-07T11:16:07Z</time>
      </trkpt>
      <trkpt lat="48.57291" lon="2.03129">
        <ele>72.82</ele>
        <time>2016-02-07T11:16:23Z</time>
      </trkpt>
      <trkpt lat="48.57287" lon="2.03137">
        <ele>73.12</ele>
        <time>2016-02-07T11:16:28Z</time>
      </trkpt>
      <trkpt lat="48.57285" lon="2.03138">
        <ele>73.21</ele>
        <time>2016-02-07T11:16:30Z</time>
      </trkpt>
      <trkpt lat="48.57274" lon="2.0316">
        <ele>74.78</ele>
        <time>2016-02-07T11:16:45Z</time>
      </trkpt>
      <trkpt lat="48.57261" lon="2.03178">
        <ele>74.74</ele>
        <time>2016-02-07T11:16:59Z</time>
      </trkpt>
      <trkpt lat="48.5725" lon="2.03192">
        <ele>75.15</ele>
        <time>2016-02-07T11:17:10Z</time>
      </trkpt>
      <trkpt lat="48.57236" lon="2.03203">
        <ele>75.5</ele>
        <time>2016-02-07T11:17:22Z</time>
      </trkpt>
      <trkpt lat="48.57232" lon="2.03205">
        <ele>75.58</ele>
        <time>2016-02-07T11:17:26Z</time>
      </trkpt>
      <trkpt lat="48.57226" lon="2.0321">
        <ele>75.67</ele>
        <time>2016-02-07T11:17:32Z</time>
      </trkpt>
      <trkpt lat="48.57223" lon="2.03214">
        <ele>75.69</ele>
        <time>2016-02-07T11:17:36Z</time>
      </trkpt>
      <trkpt lat="48.57213" lon="2.03223">
        <ele>75.82</ele>
        <time>2016-02-07T11:17:46Z</time>
      </trkpt>
      <trkpt lat="48.57198" lon="2.0324">
        <ele>75.99</ele>
        <time>2016-02-07T11:18:02Z</time>
      </trkpt>
      <trkpt lat="48.57183" lon="2.03253">
        <ele>76.03</ele>
        <time>2016-02-07T11:18:17Z</time>
      </trkpt>
      <trkpt lat="48.57164" lon="2.03268">
        <ele>75.9</ele>
        <time>2016-02-07T11:18:36Z</time>
      </trkpt>
      <trkpt lat="48.57151" lon="2.03279">
        <ele>75.83</ele>
        <time>2016-02-07T11:18:50Z</time>
      </trkpt>
      <trkpt lat="48.57138" lon="2.03292">
        <ele>76.16</ele>
        <time>2016-02-07T11:19:04Z</time>
      </trkpt>
      <trkpt lat="48.57117" lon="2.03312">
        <ele>76.09</ele>
        <time>2016-02-07T11:19:25Z</time>
      </trkpt>
      <trkpt lat="48.57102" lon="2.03327">
        <ele>75.99</ele>
        <time>2016-02-07T11:19:41Z</time>
      </trkpt>
      <trkpt lat="48.57086" lon="2.03342">
        <ele>75.92</ele>
        <time>2016-02-07T11:19:58Z</time>
      </trkpt>
      <trkpt lat="48.5707" lon="2.03354">
        <ele>76.21</ele>
        <time>2016-02-07T11:20:13Z</time>
      </trkpt>
      <trkpt lat="48.57067" lon="2.03355">
        <ele>76.15</ele>
        <time>2016-02-07T11:20:15Z</time>
      </trkpt>
      <trkpt lat="48.57046" lon="2.0337">
        <ele>75.24</ele>
        <time>2016-02-07T11:20:34Z</time>
      </trkpt>
      <trkpt lat="48.5703" lon="2.03381">
        <ele>74.72</ele>
        <time>2016-02-07T11:20:50Z</time>
      </trkpt>
      <trkpt lat="48.57014" lon="2.03391">
        <ele>74.24</ele>
        <time>2016-02-07T11:21:04Z</time>
      </trkpt>
      <trkpt lat="48.57006" lon="2.03394">
        <ele>73.9</ele>
        <time>2016-02-07T11:21:13Z</time>
      </trkpt>
      <trkpt lat="48.57003" lon="2.03395">
        <ele>73.95</ele>
        <time>2016-02-07T11:21:16Z</time>
      </trkpt>
      <trkpt lat="48.57" lon="2.03395">
        <ele>74</ele>
        <time>2016-02-07T11:21:19Z</time>
      </trkpt>
      <trkpt lat="48.56989" lon="2.03389">
        <ele>73.53</ele>
        <time>2016-02-07T11:21:32Z</time>
      </trkpt>
      <trkpt lat="48.56981" lon="2.03398">
        <ele>74.47</ele>
        <time>2016-02-07T11:21:41Z</time>
      </trkpt>
      <trkpt lat="48.5698" lon="2.03402">
        <ele>73.99</ele>
        <time>2016-02-07T11:21:45Z</time>
      </trkpt>
      <trkpt lat="48.56971" lon="2.03417">
        <ele>73.55</ele>
        <time>2016-02-07T11:21:59Z</time>
      </trkpt>
      <trkpt lat="48.56969" lon="2.03419">
        <ele>73.29</ele>
        <time>2016-02-07T11:22:02Z</time>
      </trkpt>
      <trkpt lat="48.5696" lon="2.03423">
        <ele>72.93</ele>
        <time>2016-02-07T11:22:14Z</time>
      </trkpt>
      <trkpt lat="48.56959" lon="2.03424">
        <ele>73.66</ele>
        <time>2016-02-07T11:22:29Z</time>
      </trkpt>
      <trkpt lat="48.5696" lon="2.03424">
        <ele>73.87</ele>
        <time>2016-02-07T11:22:32Z</time>
      </trkpt>
    </trkseg>
  </trk>
</gpx>